Time,TemperatureF,DewpointF,PressureIn,WindDirection,WindDirectionDegrees,WindSpeedMPH,WindSpeedGustMPH,Humidity,HourlyPrecipIn,Conditions,Clouds,dailyrainin,SoftwareType,DateUTC
2013-08-26 00:00:00,68.8,62.4,30.17,SSE,158,1.1,2.0,80,0.00,,,0.00,WUHU216HW,2013-08-26 04:00:00,
2013-08-26 00:01:00,68.8,62.4,30.17,SE,135,1.1,2.0,80,0.00,,,0.00,WUHU216HW,2013-08-26 04:01:00,
2013-08-26 00:03:00,68.6,62.2,30.17,SE,135,0.4,1.1,80,0.00,,,0.00,WUHU216HW,2013-08-26 04:03:00,
2013-08-26 00:04:00,68.6,62.2,30.17,SSE,158,0.0,1.1,80,0.00,,,0.00,WUHU216HW,2013-08-26 04:04:00,
2013-08-26 00:06:00,68.4,62.4,30.17,SSE,158,0.0,1.1,81,0.00,,,0.00,WUHU216HW,2013-08-26 04:06:00,
2013-08-26 00:07:00,68.4,62.4,30.17,SSE,158,0.0,1.1,81,0.00,,,0.00,WUHU216HW,2013-08-26 04:07:00,
2013-08-26 00:09:00,68.0,62.1,30.17,SE,135,0.2,1.1,81,0.00,,,0.00,WUHU216HW,2013-08-26 04:09:00,
2013-08-26 00:12:00,68.0,62.1,30.17,SW,225,0.0,0.2,81,0.00,,,0.00,WUHU216HW,2013-08-26 04:12:00,
2013-08-26 00:14:00,67.9,62.2,30.17,SW,225,0.2,0.2,82,0.00,,,0.00,WUHU216HW,2013-08-26 04:14:00,
2013-08-26 00:15:00,67.7,62.0,30.17,SW,225,0.2,0.2,82,0.00,,,0.00,WUHU216HW,2013-08-26 04:15:00,
2013-08-26 00:16:00,67.7,62.0,30.17,SW,225,0.0,0.2,82,0.00,,,0.00,WUHU216HW,2013-08-26 04:16:00,
2013-08-26 00:19:00,67.5,62.2,30.17,SW,225,1.1,1.1,83,0.00,,,0.00,WUHU216HW,2013-08-26 04:19:00,
2013-08-26 00:20:00,67.5,62.2,30.17,SW,225,0.8,1.1,83,0.00,,,0.00,WUHU216HW,2013-08-26 04:20:00,
2013-08-26 00:21:00,67.5,62.2,30.18,SW,225,0.7,1.1,83,0.00,,,0.00,WUHU216HW,2013-08-26 04:21:00,
2013-08-26 00:24:00,67.3,62.0,30.18,SW,225,1.0,1.1,83,0.00,,,0.00,WUHU216HW,2013-08-26 04:24:00,
2013-08-26 00:26:00,67.3,62.0,30.17,SW,225,0.8,1.1,83,0.00,,,0.00,WUHU216HW,2013-08-26 04:26:00,
2013-08-26 00:28:00,67.1,61.8,30.17,SW,225,0.9,1.1,83,0.00,,,0.00,WUHU216HW,2013-08-26 04:28:00,
2013-08-26 00:29:00,67.1,61.8,30.17,SW,225,0.7,1.1,83,0.00,,,0.00,WUHU216HW,2013-08-26 04:29:00,
2013-08-26 00:31:00,67.1,61.8,30.17,SSW,203,0.4,1.1,83,0.00,,,0.00,WUHU216HW,2013-08-26 04:31:00,
2013-08-26 00:34:00,67.0,61.9,30.17,SSW,203,0.0,1.1,84,0.00,,,0.00,WUHU216HW,2013-08-26 04:34:00,
2013-08-26 00:36:00,67.0,61.9,30.17,SSW,203,0.0,0.9,84,0.00,,,0.00,WUHU216HW,2013-08-26 04:36:00,
2013-08-26 00:37:00,67.0,61.9,30.17,SSW,203,0.0,0.9,84,0.00,,,0.00,WUHU216HW,2013-08-26 04:37:00,
2013-08-26 00:40:00,66.8,61.7,30.17,SSW,203,0.0,0.4,84,0.00,,,0.00,WUHU216HW,2013-08-26 04:40:00,
2013-08-26 00:41:00,66.6,61.6,30.17,SSW,203,0.0,0.2,84,0.00,,,0.00,WUHU216HW,2013-08-26 04:41:00,
2013-08-26 00:42:00,66.6,61.6,30.17,SSW,203,0.0,0.0,84,0.00,,,0.00,WUHU216HW,2013-08-26 04:42:00,
2013-08-26 00:43:00,66.6,61.6,30.17,SSW,203,0.0,0.0,84,0.00,,,0.00,WUHU216HW,2013-08-26 04:43:00,
2013-08-26 00:45:00,66.6,61.6,30.16,SSW,203,0.0,0.0,84,0.00,,,0.00,WUHU216HW,2013-08-26 04:45:00,
2013-08-26 00:46:00,66.6,61.6,30.16,SW,225,0.0,0.0,84,0.00,,,0.00,WUHU216HW,2013-08-26 04:46:00,
2013-08-26 00:48:00,66.6,61.6,30.16,SW,225,0.0,0.0,84,0.00,,,0.00,WUHU216HW,2013-08-26 04:48:00,
2013-08-26 00:49:00,66.6,61.6,30.17,SW,225,0.0,0.0,84,0.00,,,0.00,WUHU216HW,2013-08-26 04:49:00,
2013-08-26 00:51:00,66.6,61.6,30.17,SW,225,0.0,0.0,84,0.00,,,0.00,WUHU216HW,2013-08-26 04:51:00,
2013-08-26 00:53:00,66.4,61.4,30.17,SW,225,0.0,0.0,84,0.00,,,0.00,WUHU216HW,2013-08-26 04:53:00,
2013-08-26 00:54:00,66.4,61.4,30.17,SW,225,0.0,0.0,84,0.00,,,0.00,WUHU216HW,2013-08-26 04:54:00,
2013-08-26 00:55:00,66.4,61.4,30.17,WSW,248,1.1,1.1,84,0.00,,,0.00,WUHU216HW,2013-08-26 04:55:00,
2013-08-26 00:56:00,66.4,61.4,30.17,WSW,248,0.9,1.1,84,0.00,,,0.00,WUHU216HW,2013-08-26 04:56:00,
2013-08-26 00:57:00,66.4,61.4,30.17,WSW,248,0.9,1.1,84,0.00,,,0.00,WUHU216HW,2013-08-26 04:57:00,
2013-08-26 00:59:00,66.4,61.4,30.17,WSW,248,0.0,1.1,84,0.00,,,0.00,WUHU216HW,2013-08-26 04:59:00,
2013-08-26 01:00:00,66.4,61.4,30.17,WSW,248,0.0,1.1,84,0.00,,,0.00,WUHU216HW,2013-08-26 05:00:00,
2013-08-26 01:02:00,66.2,61.2,30.17,WSW,248,0.0,1.1,84,0.00,,,0.00,WUHU216HW,2013-08-26 05:02:00,
2013-08-26 01:03:00,66.2,61.6,30.17,WSW,248,0.0,1.1,85,0.00,,,0.00,WUHU216HW,2013-08-26 05:03:00,
2013-08-26 01:05:00,66.2,61.6,30.17,WSW,248,1.1,1.1,85,0.00,,,0.00,WUHU216HW,2013-08-26 05:05:00,
2013-08-26 01:06:00,66.2,61.6,30.17,WSW,248,1.1,1.1,85,0.00,,,0.00,WUHU216HW,2013-08-26 05:06:00,
2013-08-26 01:07:00,66.2,61.6,30.17,WSW,248,1.0,1.1,85,0.00,,,0.00,WUHU216HW,2013-08-26 05:07:00,
2013-08-26 01:09:00,66.1,61.4,30.17,WSW,248,0.9,1.1,85,0.00,,,0.00,WUHU216HW,2013-08-26 05:09:00,
2013-08-26 01:11:00,66.1,61.4,30.17,WSW,248,0.0,1.1,85,0.00,,,0.00,WUHU216HW,2013-08-26 05:11:00,
2013-08-26 01:12:00,65.9,61.2,30.17,WSW,248,0.0,1.1,85,0.00,,,0.00,WUHU216HW,2013-08-26 05:12:00,
2013-08-26 01:13:00,65.9,61.2,30.17,WSW,248,0.0,1.1,85,0.00,,,0.00,WUHU216HW,2013-08-26 05:13:00,
2013-08-26 01:14:00,65.9,61.2,30.17,WSW,248,0.0,1.1,85,0.00,,,0.00,WUHU216HW,2013-08-26 05:14:00,
2013-08-26 01:16:00,65.9,61.2,30.17,WSW,248,0.0,0.9,85,0.00,,,0.00,WUHU216HW,2013-08-26 05:16:00,
2013-08-26 01:18:00,65.9,61.2,30.17,WSW,248,0.0,0.9,85,0.00,,,0.00,WUHU216HW,2013-08-26 05:18:00,
2013-08-26 01:19:00,65.7,61.0,30.17,WSW,248,0.0,0.0,85,0.00,,,0.00,WUHU216HW,2013-08-26 05:19:00,
2013-08-26 01:21:00,65.7,61.0,30.17,WSW,248,0.0,0.0,85,0.00,,,0.00,WUHU216HW,2013-08-26 05:21:00,
2013-08-26 01:24:00,65.5,60.8,30.17,WSW,248,0.7,0.7,85,0.00,,,0.00,WUHU216HW,2013-08-26 05:24:00,
2013-08-26 01:26:00,65.5,60.8,30.16,WSW,248,1.5,1.8,85,0.00,,,0.00,WUHU216HW,2013-08-26 05:26:00,
2013-08-26 01:27:00,65.5,61.2,30.17,WSW,248,1.0,1.8,86,0.00,,,0.00,WUHU216HW,2013-08-26 05:27:00,
2013-08-26 01:29:00,65.3,61.0,30.17,WSW,248,1.0,1.8,86,0.00,,,0.00,WUHU216HW,2013-08-26 05:29:00,
2013-08-26 01:30:00,65.3,61.0,30.17,WSW,248,0.9,1.8,86,0.00,,,0.00,WUHU216HW,2013-08-26 05:30:00,
2013-08-26 01:31:00,65.3,61.0,30.17,WSW,248,1.1,1.8,86,0.00,,,0.00,WUHU216HW,2013-08-26 05:31:00,
2013-08-26 01:32:00,65.3,61.0,30.16,WSW,248,0.8,1.8,86,0.00,,,0.00,WUHU216HW,2013-08-26 05:32:00,
2013-08-26 01:33:00,65.3,61.0,30.17,WSW,248,0.4,1.8,86,0.00,,,0.00,WUHU216HW,2013-08-26 05:33:00,
2013-08-26 01:34:00,65.3,61.0,30.17,WSW,248,0.0,1.8,86,0.00,,,0.00,WUHU216HW,2013-08-26 05:34:00,
2013-08-26 01:35:00,65.2,60.8,30.17,WSW,248,0.0,1.1,86,0.00,,,0.00,WUHU216HW,2013-08-26 05:35:00,
2013-08-26 01:37:00,65.2,60.8,30.17,WSW,248,0.0,1.1,86,0.00,,,0.00,WUHU216HW,2013-08-26 05:37:00,
2013-08-26 01:38:00,65.2,60.8,30.17,WSW,248,0.0,1.1,86,0.00,,,0.00,WUHU216HW,2013-08-26 05:38:00,
2013-08-26 01:40:00,65.2,60.8,30.17,WSW,248,0.0,1.1,86,0.00,,,0.00,WUHU216HW,2013-08-26 05:40:00,
2013-08-26 01:42:00,65.2,60.8,30.16,WSW,248,0.0,0.0,86,0.00,,,0.00,WUHU216HW,2013-08-26 05:42:00,
2013-08-26 01:43:00,65.2,60.8,30.16,WSW,248,0.0,0.0,86,0.00,,,0.00,WUHU216HW,2013-08-26 05:43:00,
2013-08-26 01:44:00,65.2,60.8,30.16,WSW,248,0.0,0.0,86,0.00,,,0.00,WUHU216HW,2013-08-26 05:44:00,
2013-08-26 01:45:00,65.2,60.8,30.16,WSW,248,0.0,0.0,86,0.00,,,0.00,WUHU216HW,2013-08-26 05:45:00,
2013-08-26 01:46:00,65.2,60.8,30.16,WSW,248,0.0,0.0,86,0.00,,,0.00,WUHU216HW,2013-08-26 05:46:00,
2013-08-26 01:47:00,65.2,60.8,30.16,WSW,248,0.0,0.0,86,0.00,,,0.00,WUHU216HW,2013-08-26 05:47:00,
2013-08-26 01:49:00,65.2,60.6,30.16,WSW,248,0.9,0.9,85,0.00,,,0.00,WUHU216HW,2013-08-26 05:49:00,
2013-08-26 01:50:00,65.2,60.6,30.16,WSW,248,0.6,0.9,85,0.00,,,0.00,WUHU216HW,2013-08-26 05:50:00,
2013-08-26 01:51:00,65.2,60.6,30.16,WSW,248,0.4,0.9,85,0.00,,,0.00,WUHU216HW,2013-08-26 05:51:00,
2013-08-26 01:53:00,65.2,60.6,30.16,WSW,248,0.0,0.9,85,0.00,,,0.00,WUHU216HW,2013-08-26 05:53:00,
2013-08-26 01:54:00,65.2,60.6,30.16,WSW,248,0.0,0.9,85,0.00,,,0.00,WUHU216HW,2013-08-26 05:54:00,
2013-08-26 01:56:00,65.0,60.4,30.16,WSW,248,0.0,0.9,85,0.00,,,0.00,WUHU216HW,2013-08-26 05:56:00,
2013-08-26 01:58:00,65.0,60.4,30.16,WSW,248,0.0,0.9,85,0.00,,,0.00,WUHU216HW,2013-08-26 05:58:00,
2013-08-26 02:00:00,65.0,60.4,30.15,WSW,248,0.0,0.4,85,0.00,,,0.00,WUHU216HW,2013-08-26 06:00:00,
2013-08-26 02:01:00,64.8,60.2,30.16,WSW,248,0.0,0.0,85,0.00,,,0.00,WUHU216HW,2013-08-26 06:01:00,
2013-08-26 02:03:00,64.8,60.2,30.16,WSW,248,0.0,0.0,85,0.00,,,0.00,WUHU216HW,2013-08-26 06:03:00,
2013-08-26 02:04:00,64.8,60.2,30.16,WSW,248,0.0,0.0,85,0.00,,,0.00,WUHU216HW,2013-08-26 06:04:00,
2013-08-26 02:05:00,64.8,60.2,30.16,WSW,248,0.0,0.0,85,0.00,,,0.00,WUHU216HW,2013-08-26 06:05:00,
2013-08-26 02:08:00,64.6,60.0,30.16,WSW,248,0.0,0.0,85,0.00,,,0.00,WUHU216HW,2013-08-26 06:08:00,
2013-08-26 02:09:00,64.6,60.0,30.16,WSW,248,0.0,0.0,85,0.00,,,0.00,WUHU216HW,2013-08-26 06:09:00,
2013-08-26 02:11:00,64.4,59.9,30.15,WSW,248,0.0,0.0,85,0.00,,,0.00,WUHU216HW,2013-08-26 06:11:00,
2013-08-26 02:13:00,64.4,59.9,30.15,WSW,248,0.0,0.0,85,0.00,,,0.00,WUHU216HW,2013-08-26 06:13:00,
2013-08-26 02:14:00,64.4,59.9,30.15,WSW,248,0.0,0.0,85,0.00,,,0.00,WUHU216HW,2013-08-26 06:14:00,
2013-08-26 02:15:00,64.4,59.9,30.16,WSW,248,0.0,0.0,85,0.00,,,0.00,WUHU216HW,2013-08-26 06:15:00,
2013-08-26 02:17:00,64.4,59.9,30.15,WSW,248,0.0,0.0,85,0.00,,,0.00,WUHU216HW,2013-08-26 06:17:00,
2013-08-26 02:19:00,64.4,60.2,30.15,WSW,248,0.0,0.0,86,0.00,,,0.00,WUHU216HW,2013-08-26 06:19:00,
2013-08-26 02:20:00,64.4,60.2,30.15,WSW,248,0.0,0.0,86,0.00,,,0.00,WUHU216HW,2013-08-26 06:20:00,
2013-08-26 02:21:00,64.4,60.2,30.15,WSW,248,0.0,0.0,86,0.00,,,0.00,WUHU216HW,2013-08-26 06:21:00,
2013-08-26 02:24:00,64.3,60.0,30.15,WSW,248,0.0,0.0,86,0.00,,,0.00,WUHU216HW,2013-08-26 06:24:00,
2013-08-26 02:25:00,64.3,60.0,30.15,East,90,0.4,0.4,86,0.00,,,0.00,WUHU216HW,2013-08-26 06:25:00,
2013-08-26 02:26:00,64.3,60.0,30.15,East,90,0.4,0.4,86,0.00,,,0.00,WUHU216HW,2013-08-26 06:26:00,
2013-08-26 02:29:00,64.3,60.0,30.15,East,90,0.0,0.4,86,0.00,,,0.00,WUHU216HW,2013-08-26 06:29:00,
2013-08-26 02:31:00,64.3,60.0,30.15,East,90,0.0,0.4,86,0.00,,,0.00,WUHU216HW,2013-08-26 06:31:00,
2013-08-26 02:36:00,64.1,60.2,30.15,East,90,0.0,0.0,87,0.00,,,0.00,WUHU216HW,2013-08-26 06:36:00,
2013-08-26 02:37:00,64.1,60.2,30.15,East,90,0.0,0.0,87,0.00,,,0.00,WUHU216HW,2013-08-26 06:37:00,
2013-08-26 02:38:00,64.3,60.4,30.15,East,90,0.0,0.0,87,0.00,,,0.00,WUHU216HW,2013-08-26 06:38:00,
2013-08-26 02:41:00,64.1,60.2,30.15,East,90,0.0,0.0,87,0.00,,,0.00,WUHU216HW,2013-08-26 06:41:00,
2013-08-26 02:42:00,64.1,60.2,30.15,East,90,0.0,0.0,87,0.00,,,0.00,WUHU216HW,2013-08-26 06:42:00,
2013-08-26 02:43:00,64.1,60.2,30.15,East,90,0.0,0.0,87,0.00,,,0.00,WUHU216HW,2013-08-26 06:43:00,
2013-08-26 02:44:00,64.1,60.2,30.15,East,90,0.0,0.0,87,0.00,,,0.00,WUHU216HW,2013-08-26 06:44:00,
2013-08-26 02:47:00,64.1,60.2,30.15,East,90,0.0,0.0,87,0.00,,,0.00,WUHU216HW,2013-08-26 06:47:00,
2013-08-26 02:48:00,64.1,60.2,30.15,East,90,0.0,0.0,87,0.00,,,0.00,WUHU216HW,2013-08-26 06:48:00,
2013-08-26 02:49:00,64.1,60.2,30.15,East,90,0.0,0.0,87,0.00,,,0.00,WUHU216HW,2013-08-26 06:49:00,
2013-08-26 02:50:00,64.1,60.2,30.15,East,90,0.0,0.0,87,0.00,,,0.00,WUHU216HW,2013-08-26 06:50:00,
2013-08-26 02:52:00,63.9,60.0,30.15,East,90,0.0,0.0,87,0.00,,,0.00,WUHU216HW,2013-08-26 06:52:00,
2013-08-26 02:54:00,63.7,59.9,30.14,East,90,0.0,0.0,87,0.00,,,0.00,WUHU216HW,2013-08-26 06:54:00,
2013-08-26 02:55:00,63.7,59.9,30.14,East,90,0.0,0.0,87,0.00,,,0.00,WUHU216HW,2013-08-26 06:55:00,
2013-08-26 02:56:00,63.7,59.9,30.14,East,90,0.0,0.0,87,0.00,,,0.00,WUHU216HW,2013-08-26 06:56:00,
2013-08-26 02:57:00,63.7,59.9,30.14,East,90,0.0,0.0,87,0.00,,,0.00,WUHU216HW,2013-08-26 06:57:00,
2013-08-26 02:59:00,63.5,59.7,30.14,East,90,0.0,0.0,87,0.00,,,0.00,WUHU216HW,2013-08-26 06:59:00,
2013-08-26 03:01:00,63.5,59.7,30.14,East,90,0.0,0.0,87,0.00,,,0.00,WUHU216HW,2013-08-26 07:01:00,
2013-08-26 03:03:00,63.4,59.5,30.15,East,90,0.0,0.0,87,0.00,,,0.00,WUHU216HW,2013-08-26 07:03:00,
2013-08-26 03:06:00,63.4,59.5,30.15,East,90,0.0,0.0,87,0.00,,,0.00,WUHU216HW,2013-08-26 07:06:00,
2013-08-26 03:07:00,63.4,59.5,30.14,East,90,0.0,0.0,87,0.00,,,0.00,WUHU216HW,2013-08-26 07:07:00,
2013-08-26 03:08:00,63.2,59.3,30.14,East,90,0.0,0.0,87,0.00,,,0.00,WUHU216HW,2013-08-26 07:08:00,
2013-08-26 03:11:00,63.2,59.3,30.14,East,90,0.0,0.0,87,0.00,,,0.00,WUHU216HW,2013-08-26 07:11:00,
2013-08-26 03:12:00,63.2,59.3,30.14,East,90,0.0,0.0,87,0.00,,,0.00,WUHU216HW,2013-08-26 07:12:00,
2013-08-26 03:13:00,63.2,59.3,30.14,East,90,0.0,0.0,87,0.00,,,0.00,WUHU216HW,2013-08-26 07:13:00,
2013-08-26 03:14:00,63.2,59.3,30.14,East,90,0.0,0.0,87,0.00,,,0.00,WUHU216HW,2013-08-26 07:14:00,
2013-08-26 03:16:00,63.4,59.5,30.14,East,90,0.0,0.0,87,0.00,,,0.00,WUHU216HW,2013-08-26 07:16:00,
2013-08-26 03:17:00,63.2,59.6,30.14,East,90,0.0,0.0,88,0.00,,,0.00,WUHU216HW,2013-08-26 07:17:00,
2013-08-26 03:18:00,63.2,59.6,30.14,East,90,0.0,0.0,88,0.00,,,0.00,WUHU216HW,2013-08-26 07:18:00,
2013-08-26 03:19:00,63.2,59.6,30.14,East,90,0.0,0.0,88,0.00,,,0.00,WUHU216HW,2013-08-26 07:19:00,
2013-08-26 03:21:00,63.4,59.8,30.14,East,90,0.0,0.0,88,0.00,,,0.00,WUHU216HW,2013-08-26 07:21:00,
2013-08-26 03:23:00,63.4,59.8,30.15,East,90,0.0,0.0,88,0.00,,,0.00,WUHU216HW,2013-08-26 07:23:00,
2013-08-26 03:24:00,63.4,59.8,30.14,East,90,0.0,0.0,88,0.00,,,0.00,WUHU216HW,2013-08-26 07:24:00,
2013-08-26 03:26:00,63.4,59.8,30.14,East,90,0.0,0.0,88,0.00,,,0.00,WUHU216HW,2013-08-26 07:26:00,
2013-08-26 03:28:00,63.4,59.8,30.14,East,90,0.0,0.0,88,0.00,,,0.00,WUHU216HW,2013-08-26 07:28:00,
2013-08-26 03:29:00,63.4,59.8,30.14,East,90,0.0,0.0,88,0.00,,,0.00,WUHU216HW,2013-08-26 07:29:00,
2013-08-26 03:31:00,63.4,59.8,30.14,East,90,0.0,0.0,88,0.00,,,0.00,WUHU216HW,2013-08-26 07:31:00,
2013-08-26 03:34:00,63.4,59.8,30.14,East,90,0.0,0.0,88,0.00,,,0.00,WUHU216HW,2013-08-26 07:34:00,
2013-08-26 03:35:00,63.4,59.8,30.14,East,90,0.0,0.0,88,0.00,,,0.00,WUHU216HW,2013-08-26 07:35:00,
2013-08-26 03:36:00,63.4,59.8,30.14,East,90,0.0,0.0,88,0.00,,,0.00,WUHU216HW,2013-08-26 07:36:00,
2013-08-26 03:37:00,63.4,59.8,30.14,East,90,0.0,0.0,88,0.00,,,0.00,WUHU216HW,2013-08-26 07:37:00,
2013-08-26 03:39:00,63.4,59.8,30.15,East,90,0.0,0.0,88,0.00,,,0.00,WUHU216HW,2013-08-26 07:39:00,
2013-08-26 03:40:00,63.4,59.8,30.15,East,90,0.0,0.0,88,0.00,,,0.00,WUHU216HW,2013-08-26 07:40:00,
2013-08-26 03:41:00,63.2,59.6,30.15,East,90,0.0,0.0,88,0.00,,,0.00,WUHU216HW,2013-08-26 07:41:00,
2013-08-26 03:43:00,63.2,59.6,30.15,East,90,0.0,0.0,88,0.00,,,0.00,WUHU216HW,2013-08-26 07:43:00,
2013-08-26 03:45:00,63.2,59.9,30.15,East,90,0.0,0.0,89,0.00,,,0.00,WUHU216HW,2013-08-26 07:45:00,
2013-08-26 03:46:00,63.2,59.9,30.15,East,90,0.0,0.0,89,0.00,,,0.00,WUHU216HW,2013-08-26 07:46:00,
2013-08-26 03:47:00,63.2,59.9,30.15,East,90,0.0,0.0,89,0.00,,,0.00,WUHU216HW,2013-08-26 07:47:00,
2013-08-26 03:48:00,63.2,59.9,30.15,East,90,0.0,0.0,89,0.00,,,0.00,WUHU216HW,2013-08-26 07:48:00,
2013-08-26 03:51:00,63.2,59.9,30.15,East,90,0.0,0.0,89,0.00,,,0.00,WUHU216HW,2013-08-26 07:51:00,
2013-08-26 03:52:00,63.2,59.9,30.15,East,90,0.0,0.0,89,0.00,,,0.00,WUHU216HW,2013-08-26 07:52:00,
2013-08-26 03:53:00,63.2,59.9,30.14,East,90,0.0,0.0,89,0.00,,,0.00,WUHU216HW,2013-08-26 07:53:00,
2013-08-26 03:54:00,63.2,59.9,30.14,East,90,0.0,0.0,89,0.00,,,0.00,WUHU216HW,2013-08-26 07:54:00,
2013-08-26 03:56:00,63.2,59.9,30.14,East,90,0.0,0.0,89,0.00,,,0.00,WUHU216HW,2013-08-26 07:56:00,
2013-08-26 03:58:00,63.2,59.9,30.14,East,90,0.0,0.0,89,0.00,,,0.00,WUHU216HW,2013-08-26 07:58:00,
2013-08-26 03:59:00,63.2,59.9,30.14,East,90,0.0,0.0,89,0.00,,,0.00,WUHU216HW,2013-08-26 07:59:00,
2013-08-26 04:00:00,63.2,59.9,30.15,East,90,0.0,0.0,89,0.00,,,0.00,WUHU216HW,2013-08-26 08:00:00,
2013-08-26 04:03:00,63.2,59.9,30.14,East,90,0.0,0.0,89,0.00,,,0.00,WUHU216HW,2013-08-26 08:03:00,
2013-08-26 04:04:00,63.2,59.9,30.14,East,90,0.0,0.0,89,0.00,,,0.00,WUHU216HW,2013-08-26 08:04:00,
2013-08-26 04:05:00,63.2,59.9,30.14,East,90,0.0,0.0,89,0.00,,,0.00,WUHU216HW,2013-08-26 08:05:00,
2013-08-26 04:08:00,63.0,59.8,30.14,East,90,0.0,0.0,89,0.00,,,0.00,WUHU216HW,2013-08-26 08:08:00,
2013-08-26 04:09:00,63.0,59.8,30.15,East,90,0.0,0.0,89,0.00,,,0.00,WUHU216HW,2013-08-26 08:09:00,
2013-08-26 04:10:00,63.0,59.8,30.14,East,90,0.0,0.0,89,0.00,,,0.00,WUHU216HW,2013-08-26 08:10:00,
2013-08-26 04:11:00,63.0,59.8,30.14,East,90,0.0,0.0,89,0.00,,,0.00,WUHU216HW,2013-08-26 08:11:00,
2013-08-26 04:14:00,63.0,59.8,30.15,East,90,0.0,0.0,89,0.00,,,0.00,WUHU216HW,2013-08-26 08:14:00,
2013-08-26 04:15:00,63.0,59.8,30.15,East,90,0.0,0.0,89,0.00,,,0.00,WUHU216HW,2013-08-26 08:15:00,
2013-08-26 04:16:00,63.0,59.8,30.14,East,90,0.0,0.0,89,0.00,,,0.00,WUHU216HW,2013-08-26 08:16:00,
2013-08-26 04:17:00,63.0,59.8,30.14,East,90,0.0,0.0,89,0.00,,,0.00,WUHU216HW,2013-08-26 08:17:00,
2013-08-26 04:19:00,63.0,59.8,30.14,East,90,0.0,0.0,89,0.00,,,0.00,WUHU216HW,2013-08-26 08:19:00,
2013-08-26 04:21:00,62.8,59.6,30.14,East,90,0.0,0.0,89,0.00,,,0.00,WUHU216HW,2013-08-26 08:21:00,
2013-08-26 04:23:00,62.8,59.6,30.14,ESE,113,0.6,0.7,89,0.00,,,0.00,WUHU216HW,2013-08-26 08:23:00,
2013-08-26 04:24:00,62.8,59.6,30.14,ESE,113,0.6,0.7,89,0.00,,,0.00,WUHU216HW,2013-08-26 08:24:00,
2013-08-26 04:26:00,62.6,59.4,30.14,ESE,113,0.0,0.7,89,0.00,,,0.00,WUHU216HW,2013-08-26 08:26:00,
2013-08-26 04:27:00,62.8,59.6,30.14,ESE,113,0.0,0.7,89,0.00,,,0.00,WUHU216HW,2013-08-26 08:27:00,
2013-08-26 04:28:00,62.6,59.4,30.14,ESE,113,0.0,0.7,89,0.00,,,0.00,WUHU216HW,2013-08-26 08:28:00,
2013-08-26 04:29:00,62.6,59.4,30.14,ESE,113,0.0,0.7,89,0.00,,,0.00,WUHU216HW,2013-08-26 08:29:00,
2013-08-26 04:32:00,62.6,59.4,30.14,ESE,113,0.0,0.4,89,0.00,,,0.00,WUHU216HW,2013-08-26 08:32:00,
2013-08-26 04:33:00,62.6,59.4,30.14,ESE,113,0.0,0.0,89,0.00,,,0.00,WUHU216HW,2013-08-26 08:33:00,
2013-08-26 04:34:00,62.6,59.4,30.14,ESE,113,0.0,0.0,89,0.00,,,0.00,WUHU216HW,2013-08-26 08:34:00,
2013-08-26 04:37:00,62.6,59.4,30.14,ESE,113,0.0,0.0,89,0.00,,,0.00,WUHU216HW,2013-08-26 08:37:00,
2013-08-26 04:38:00,62.6,59.4,30.14,ESE,113,0.0,0.0,89,0.00,,,0.00,WUHU216HW,2013-08-26 08:38:00,
2013-08-26 04:39:00,62.6,59.4,30.14,ESE,113,0.0,0.0,89,0.00,,,0.00,WUHU216HW,2013-08-26 08:39:00,
2013-08-26 04:40:00,62.6,59.4,30.14,ESE,113,0.0,0.0,89,0.00,,,0.00,WUHU216HW,2013-08-26 08:40:00,
2013-08-26 04:43:00,62.6,59.4,30.14,ESE,113,0.0,0.0,89,0.00,,,0.00,WUHU216HW,2013-08-26 08:43:00,
2013-08-26 04:44:00,62.6,59.4,30.14,SW,225,0.0,0.0,89,0.00,,,0.00,WUHU216HW,2013-08-26 08:44:00,
2013-08-26 04:45:00,62.6,59.8,30.14,SW,225,0.0,0.0,90,0.00,,,0.00,WUHU216HW,2013-08-26 08:45:00,
2013-08-26 04:46:00,62.6,59.8,30.14,SW,225,0.0,0.0,90,0.00,,,0.00,WUHU216HW,2013-08-26 08:46:00,
2013-08-26 04:48:00,62.5,59.6,30.14,SW,225,0.0,0.0,90,0.00,,,0.00,WUHU216HW,2013-08-26 08:48:00,
2013-08-26 04:50:00,62.5,59.6,30.14,SW,225,0.0,0.0,90,0.00,,,0.00,WUHU216HW,2013-08-26 08:50:00,
2013-08-26 04:51:00,62.5,59.6,30.14,SW,225,0.0,0.0,90,0.00,,,0.00,WUHU216HW,2013-08-26 08:51:00,
2013-08-26 04:56:00,62.5,59.6,30.14,SW,225,0.2,0.2,90,0.00,,,0.00,WUHU216HW,2013-08-26 08:56:00,
2013-08-26 04:57:00,62.5,59.6,30.14,SW,225,0.2,0.2,90,0.00,,,0.00,WUHU216HW,2013-08-26 08:57:00,
2013-08-26 04:59:00,62.5,59.6,30.14,SW,225,0.4,0.7,90,0.00,,,0.00,WUHU216HW,2013-08-26 08:59:00,
2013-08-26 05:02:00,62.6,59.8,30.14,SW,225,0.0,0.7,90,0.00,,,0.00,WUHU216HW,2013-08-26 09:02:00,
2013-08-26 05:03:00,62.6,59.8,30.14,SW,225,0.0,0.7,90,0.00,,,0.00,WUHU216HW,2013-08-26 09:03:00,
2013-08-26 05:04:00,62.5,59.6,30.15,SW,225,0.0,0.7,90,0.00,,,0.00,WUHU216HW,2013-08-26 09:04:00,
2013-08-26 05:07:00,62.5,59.6,30.14,SW,225,0.0,0.4,90,0.00,,,0.00,WUHU216HW,2013-08-26 09:07:00,
2013-08-26 05:08:00,62.5,59.6,30.14,SW,225,0.0,0.4,90,0.00,,,0.00,WUHU216HW,2013-08-26 09:08:00,
2013-08-26 05:10:00,62.5,59.6,30.14,SW,225,0.0,0.0,90,0.00,,,0.00,WUHU216HW,2013-08-26 09:10:00,
2013-08-26 05:11:00,62.5,59.6,30.14,SW,225,0.0,0.0,90,0.00,,,0.00,WUHU216HW,2013-08-26 09:11:00,
2013-08-26 05:13:00,62.3,59.4,30.14,SW,225,0.0,0.0,90,0.00,,,0.00,WUHU216HW,2013-08-26 09:13:00,
2013-08-26 05:14:00,62.3,59.4,30.14,SW,225,0.0,0.0,90,0.00,,,0.00,WUHU216HW,2013-08-26 09:14:00,
2013-08-26 05:15:00,62.3,59.4,30.14,SW,225,0.0,0.0,90,0.00,,,0.00,WUHU216HW,2013-08-26 09:15:00,
2013-08-26 05:16:00,62.3,59.4,30.14,SW,225,0.0,0.0,90,0.00,,,0.00,WUHU216HW,2013-08-26 09:16:00,
2013-08-26 05:18:00,62.1,59.2,30.14,SW,225,0.0,0.0,90,0.00,,,0.00,WUHU216HW,2013-08-26 09:18:00,
2013-08-26 05:19:00,62.1,59.2,30.14,SW,225,0.0,0.0,90,0.00,,,0.00,WUHU216HW,2013-08-26 09:19:00,
2013-08-26 05:20:00,61.9,59.0,30.14,SW,225,0.0,0.0,90,0.00,,,0.00,WUHU216HW,2013-08-26 09:20:00,
2013-08-26 05:21:00,61.9,59.0,30.14,SW,225,0.0,0.0,90,0.00,,,0.00,WUHU216HW,2013-08-26 09:21:00,
2013-08-26 05:23:00,61.9,59.0,30.14,SW,225,0.0,0.0,90,0.00,,,0.00,WUHU216HW,2013-08-26 09:23:00,
2013-08-26 05:24:00,61.7,58.9,30.14,SW,225,0.0,0.0,90,0.00,,,0.00,WUHU216HW,2013-08-26 09:24:00,
2013-08-26 05:27:00,61.7,58.9,30.15,SW,225,0.0,0.0,90,0.00,,,0.00,WUHU216HW,2013-08-26 09:27:00,
2013-08-26 05:29:00,61.7,58.9,30.15,SW,225,0.0,0.0,90,0.00,,,0.00,WUHU216HW,2013-08-26 09:29:00,
2013-08-26 05:30:00,61.7,58.9,30.15,SW,225,0.0,0.0,90,0.00,,,0.00,WUHU216HW,2013-08-26 09:30:00,
2013-08-26 05:33:00,61.7,58.9,30.15,SW,225,0.0,0.0,90,0.00,,,0.00,WUHU216HW,2013-08-26 09:33:00,
2013-08-26 05:35:00,61.7,58.9,30.14,SW,225,0.0,0.0,90,0.00,,,0.00,WUHU216HW,2013-08-26 09:35:00,
2013-08-26 05:36:00,61.7,58.9,30.14,SW,225,0.0,0.0,90,0.00,,,0.00,WUHU216HW,2013-08-26 09:36:00,
2013-08-26 05:38:00,61.7,58.9,30.14,SW,225,0.0,0.0,90,0.00,,,0.00,WUHU216HW,2013-08-26 09:38:00,
2013-08-26 05:40:00,61.7,58.9,30.14,SW,225,0.0,0.0,90,0.00,,,0.00,WUHU216HW,2013-08-26 09:40:00,
2013-08-26 05:41:00,61.7,58.9,30.14,SW,225,0.0,0.0,90,0.00,,,0.00,WUHU216HW,2013-08-26 09:41:00,
2013-08-26 05:44:00,61.7,58.9,30.14,SW,225,0.0,0.0,90,0.00,,,0.00,WUHU216HW,2013-08-26 09:44:00,
2013-08-26 05:46:00,61.7,58.9,30.14,SW,225,0.0,0.0,90,0.00,,,0.00,WUHU216HW,2013-08-26 09:46:00,
2013-08-26 05:47:00,61.7,58.9,30.14,SW,225,0.0,0.0,90,0.00,,,0.00,WUHU216HW,2013-08-26 09:47:00,
2013-08-26 05:48:00,61.7,58.9,30.14,SW,225,0.0,0.0,90,0.00,,,0.00,WUHU216HW,2013-08-26 09:48:00,
2013-08-26 05:51:00,61.7,59.1,30.14,ESE,113,0.6,0.7,91,0.00,,,0.00,WUHU216HW,2013-08-26 09:51:00,
2013-08-26 05:52:00,61.7,59.1,30.14,ESE,113,0.4,0.7,91,0.00,,,0.00,WUHU216HW,2013-08-26 09:52:00,
2013-08-26 05:53:00,61.7,58.9,30.14,ESE,113,0.0,0.7,90,0.00,,,0.00,WUHU216HW,2013-08-26 09:53:00,
2013-08-26 05:54:00,61.7,58.9,30.14,ESE,113,0.0,0.7,90,0.00,,,0.00,WUHU216HW,2013-08-26 09:54:00,
2013-08-26 05:55:00,61.7,58.9,30.14,ESE,113,0.0,0.7,90,0.00,,,0.00,WUHU216HW,2013-08-26 09:55:00,
2013-08-26 05:57:00,61.7,58.9,30.14,ESE,113,0.0,0.7,90,0.00,,,0.00,WUHU216HW,2013-08-26 09:57:00,
2013-08-26 05:59:00,61.6,58.7,30.14,WSW,248,0.0,0.7,90,0.00,,,0.00,WUHU216HW,2013-08-26 09:59:00,
2013-08-26 06:00:00,61.6,58.7,30.14,WSW,248,0.0,0.4,90,0.00,,,0.00,WUHU216HW,2013-08-26 10:00:00,
2013-08-26 06:01:00,61.6,58.7,30.14,WSW,248,0.0,0.0,90,0.00,,,0.00,WUHU216HW,2013-08-26 10:01:00,
2013-08-26 06:02:00,61.6,58.7,30.14,WSW,248,0.0,0.0,90,0.00,,,0.00,WUHU216HW,2013-08-26 10:02:00,
2013-08-26 06:04:00,61.6,58.7,30.14,WSW,248,0.0,0.0,90,0.00,,,0.00,WUHU216HW,2013-08-26 10:04:00,
2013-08-26 06:05:00,61.6,58.7,30.14,WSW,248,0.0,0.0,90,0.00,,,0.00,WUHU216HW,2013-08-26 10:05:00,
2013-08-26 06:07:00,61.6,59.0,30.14,WSW,248,0.0,0.0,91,0.00,,,0.00,WUHU216HW,2013-08-26 10:07:00,
2013-08-26 06:08:00,61.4,58.8,30.14,WSW,248,0.0,0.0,91,0.00,,,0.00,WUHU216HW,2013-08-26 10:08:00,
2013-08-26 06:09:00,61.4,58.8,30.14,WSW,248,0.0,0.0,91,0.00,,,0.00,WUHU216HW,2013-08-26 10:09:00,
2013-08-26 06:11:00,61.4,58.8,30.14,WSW,248,0.0,0.0,91,0.00,,,0.00,WUHU216HW,2013-08-26 10:11:00,
2013-08-26 06:12:00,61.6,59.0,30.14,WSW,248,0.0,0.0,91,0.00,,,0.00,WUHU216HW,2013-08-26 10:12:00,
2013-08-26 06:13:00,61.4,58.8,30.14,WSW,248,0.0,0.0,91,0.00,,,0.00,WUHU216HW,2013-08-26 10:13:00,
2013-08-26 06:14:00,61.4,58.8,30.14,WSW,248,0.0,0.0,91,0.00,,,0.00,WUHU216HW,2013-08-26 10:14:00,
2013-08-26 06:16:00,61.4,58.5,30.14,WSW,248,0.0,0.0,90,0.00,,,0.00,WUHU216HW,2013-08-26 10:16:00,
2013-08-26 06:18:00,61.2,58.6,30.14,WSW,248,0.0,0.0,91,0.00,,,0.00,WUHU216HW,2013-08-26 10:18:00,
2013-08-26 06:21:00,61.2,58.3,30.14,WSW,248,0.0,0.0,90,0.00,,,0.00,WUHU216HW,2013-08-26 10:21:00,
2013-08-26 06:23:00,61.0,58.4,30.15,WSW,248,0.0,0.0,91,0.00,,,0.00,WUHU216HW,2013-08-26 10:23:00,
2013-08-26 06:24:00,61.0,58.4,30.14,WSW,248,0.0,0.0,91,0.00,,,0.00,WUHU216HW,2013-08-26 10:24:00,
2013-08-26 06:26:00,61.0,58.4,30.14,WSW,248,0.0,0.0,91,0.00,,,0.00,WUHU216HW,2013-08-26 10:26:00,
2013-08-26 06:27:00,60.8,58.2,30.15,WSW,248,0.0,0.0,91,0.00,,,0.00,WUHU216HW,2013-08-26 10:27:00,
2013-08-26 06:29:00,60.8,58.2,30.14,WSW,248,0.0,0.0,91,0.00,,,0.00,WUHU216HW,2013-08-26 10:29:00,
2013-08-26 06:32:00,60.8,58.2,30.14,WSW,248,0.0,0.0,91,0.00,,,0.00,WUHU216HW,2013-08-26 10:32:00,
2013-08-26 06:34:00,61.0,58.4,30.14,WSW,248,0.0,0.0,91,0.00,,,0.00,WUHU216HW,2013-08-26 10:34:00,
2013-08-26 06:35:00,61.0,58.4,30.14,WSW,248,0.0,0.0,91,0.00,,,0.00,WUHU216HW,2013-08-26 10:35:00,
2013-08-26 06:36:00,61.0,58.4,30.14,WSW,248,0.0,0.0,91,0.00,,,0.00,WUHU216HW,2013-08-26 10:36:00,
2013-08-26 06:38:00,61.0,58.4,30.14,SW,225,0.0,0.0,91,0.00,,,0.00,WUHU216HW,2013-08-26 10:38:00,
2013-08-26 06:41:00,61.0,58.4,30.14,SW,225,0.0,0.0,91,0.00,,,0.00,WUHU216HW,2013-08-26 10:41:00,
2013-08-26 06:42:00,61.0,58.4,30.14,SW,225,0.0,0.0,91,0.00,,,0.00,WUHU216HW,2013-08-26 10:42:00,
2013-08-26 06:43:00,61.0,58.4,30.14,SW,225,0.0,0.0,91,0.00,,,0.00,WUHU216HW,2013-08-26 10:43:00,
2013-08-26 06:44:00,61.0,58.4,30.14,SSE,158,0.0,0.0,91,0.00,,,0.00,WUHU216HW,2013-08-26 10:44:00,
2013-08-26 06:46:00,61.0,58.4,30.14,SSE,158,0.0,0.0,91,0.00,,,0.00,WUHU216HW,2013-08-26 10:46:00,
2013-08-26 06:47:00,60.8,58.2,30.14,SSE,158,0.0,0.0,91,0.00,,,0.00,WUHU216HW,2013-08-26 10:47:00,
2013-08-26 06:48:00,60.8,58.2,30.14,SSE,158,0.0,0.0,91,0.00,,,0.00,WUHU216HW,2013-08-26 10:48:00,
2013-08-26 06:49:00,61.0,58.4,30.14,SSE,158,0.0,0.0,91,0.00,,,0.00,WUHU216HW,2013-08-26 10:49:00,
2013-08-26 06:51:00,61.0,58.4,30.14,SSE,158,0.0,0.0,91,0.00,,,0.00,WUHU216HW,2013-08-26 10:51:00,
2013-08-26 06:52:00,61.0,58.4,30.14,SSE,158,0.0,0.0,91,0.00,,,0.00,WUHU216HW,2013-08-26 10:52:00,
2013-08-26 06:53:00,61.0,58.4,30.14,SSE,158,0.0,0.0,91,0.00,,,0.00,WUHU216HW,2013-08-26 10:53:00,
2013-08-26 06:55:00,60.8,58.2,30.14,SSE,158,0.0,0.0,91,0.00,,,0.00,WUHU216HW,2013-08-26 10:55:00,
2013-08-26 06:57:00,61.0,58.4,30.14,SSW,203,0.0,0.0,91,0.00,,,0.00,WUHU216HW,2013-08-26 10:57:00,
2013-08-26 06:59:00,61.0,58.4,30.14,SSW,203,0.0,0.0,91,0.00,,,0.00,WUHU216HW,2013-08-26 10:59:00,
2013-08-26 07:01:00,61.2,58.9,30.14,SSW,203,0.0,0.0,92,0.00,,,0.00,WUHU216HW,2013-08-26 11:01:00,
2013-08-26 07:02:00,61.2,58.9,30.14,SSW,203,0.0,0.0,92,0.00,,,0.00,WUHU216HW,2013-08-26 11:02:00,
2013-08-26 07:03:00,61.2,58.9,30.14,SSW,203,0.0,0.0,92,0.00,,,0.00,WUHU216HW,2013-08-26 11:03:00,
2013-08-26 07:04:00,61.2,58.9,30.15,SSW,203,0.0,0.0,92,0.00,,,0.00,WUHU216HW,2013-08-26 11:04:00,
2013-08-26 07:06:00,61.2,58.6,30.15,SW,225,0.0,0.0,91,0.00,,,0.00,WUHU216HW,2013-08-26 11:06:00,
2013-08-26 07:07:00,61.2,58.6,30.15,SW,225,0.0,0.0,91,0.00,,,0.00,WUHU216HW,2013-08-26 11:07:00,
2013-08-26 07:09:00,61.0,58.4,30.15,SW,225,0.0,0.0,91,0.00,,,0.00,WUHU216HW,2013-08-26 11:09:00,
2013-08-26 07:10:00,61.0,58.4,30.15,SW,225,0.0,0.0,91,0.00,,,0.00,WUHU216HW,2013-08-26 11:10:00,
2013-08-26 07:11:00,61.0,58.4,30.15,SW,225,0.0,0.0,91,0.00,,,0.00,WUHU216HW,2013-08-26 11:11:00,
2013-08-26 07:13:00,60.8,58.2,30.15,SW,225,0.0,0.0,91,0.00,,,0.00,WUHU216HW,2013-08-26 11:13:00,
2013-08-26 07:14:00,60.8,58.2,30.15,SW,225,0.0,0.0,91,0.00,,,0.00,WUHU216HW,2013-08-26 11:14:00,
2013-08-26 07:15:00,60.8,58.2,30.15,SW,225,0.0,0.0,91,0.00,,,0.00,WUHU216HW,2013-08-26 11:15:00,
2013-08-26 07:16:00,60.7,58.1,30.15,SW,225,0.0,0.0,91,0.00,,,0.00,WUHU216HW,2013-08-26 11:16:00,
2013-08-26 07:18:00,60.7,58.1,30.15,SW,225,0.0,0.0,91,0.00,,,0.00,WUHU216HW,2013-08-26 11:18:00,
2013-08-26 07:20:00,60.7,58.3,30.15,SW,225,0.0,0.0,92,0.00,,,0.00,WUHU216HW,2013-08-26 11:20:00,
2013-08-26 07:21:00,60.7,58.3,30.15,SW,225,0.0,0.0,92,0.00,,,0.00,WUHU216HW,2013-08-26 11:21:00,
2013-08-26 07:22:00,60.7,58.3,30.15,WSW,248,0.0,0.0,92,0.00,,,0.00,WUHU216HW,2013-08-26 11:22:00,
2013-08-26 07:24:00,60.8,58.5,30.15,West,270,0.0,0.0,92,0.00,,,0.00,WUHU216HW,2013-08-26 11:24:00,
2013-08-26 07:25:00,60.8,58.5,30.15,West,270,0.0,0.0,92,0.00,,,0.00,WUHU216HW,2013-08-26 11:25:00,
2013-08-26 07:26:00,60.8,58.5,30.15,West,270,0.0,0.0,92,0.00,,,0.00,WUHU216HW,2013-08-26 11:26:00,
2013-08-26 07:27:00,60.8,58.5,30.15,West,270,0.0,0.0,92,0.00,,,0.00,WUHU216HW,2013-08-26 11:27:00,
2013-08-26 07:29:00,60.8,58.5,30.15,West,270,0.0,0.0,92,0.00,,,0.00,WUHU216HW,2013-08-26 11:29:00,
2013-08-26 07:31:00,60.8,58.5,30.15,West,270,0.0,0.0,92,0.00,,,0.00,WUHU216HW,2013-08-26 11:31:00,
2013-08-26 07:32:00,60.8,58.5,30.15,West,270,0.0,0.0,92,0.00,,,0.00,WUHU216HW,2013-08-26 11:32:00,
2013-08-26 07:34:00,60.8,58.5,30.15,West,270,0.0,0.0,92,0.00,,,0.00,WUHU216HW,2013-08-26 11:34:00,
2013-08-26 07:37:00,61.0,58.7,30.15,West,270,0.0,0.0,92,0.00,,,0.00,WUHU216HW,2013-08-26 11:37:00,
2013-08-26 07:38:00,61.0,58.7,30.15,West,270,0.0,0.0,92,0.00,,,0.00,WUHU216HW,2013-08-26 11:38:00,
2013-08-26 07:40:00,61.2,58.9,30.15,West,270,0.0,0.0,92,0.00,,,0.00,WUHU216HW,2013-08-26 11:40:00,
2013-08-26 07:43:00,61.4,59.0,30.15,West,270,0.0,0.0,92,0.00,,,0.00,WUHU216HW,2013-08-26 11:43:00,
2013-08-26 07:44:00,61.6,59.2,30.16,West,270,0.0,0.0,92,0.00,,,0.00,WUHU216HW,2013-08-26 11:44:00,
2013-08-26 07:45:00,61.6,59.2,30.16,West,270,0.0,0.0,92,0.00,,,0.00,WUHU216HW,2013-08-26 11:45:00,
2013-08-26 07:48:00,61.7,59.4,30.16,West,270,0.0,0.0,92,0.00,,,0.00,WUHU216HW,2013-08-26 11:48:00,
2013-08-26 07:49:00,61.9,59.6,30.16,West,270,0.0,0.0,92,0.00,,,0.00,WUHU216HW,2013-08-26 11:49:00,
2013-08-26 07:51:00,61.9,59.6,30.16,West,270,0.0,0.0,92,0.00,,,0.00,WUHU216HW,2013-08-26 11:51:00,
2013-08-26 07:54:00,62.3,59.7,30.16,West,270,0.0,0.0,91,0.00,,,0.00,WUHU216HW,2013-08-26 11:54:00,
2013-08-26 07:56:00,62.5,59.9,30.16,West,270,0.0,0.0,91,0.00,,,0.00,WUHU216HW,2013-08-26 11:56:00,
2013-08-26 07:58:00,62.6,60.0,30.16,West,270,0.0,0.0,91,0.00,,,0.00,WUHU216HW,2013-08-26 11:58:00,
2013-08-26 07:59:00,62.6,60.0,30.16,West,270,0.0,0.0,91,0.00,,,0.00,WUHU216HW,2013-08-26 11:59:00,
2013-08-26 08:00:00,62.8,60.2,30.16,West,270,0.0,0.0,91,0.00,,,0.00,WUHU216HW,2013-08-26 12:00:00,
2013-08-26 08:01:00,63.0,60.4,30.16,West,270,0.0,0.0,91,0.00,,,0.00,WUHU216HW,2013-08-26 12:01:00,
2013-08-26 08:04:00,63.4,60.8,30.16,West,270,0.0,0.0,91,0.00,,,0.00,WUHU216HW,2013-08-26 12:04:00,
2013-08-26 08:05:00,63.4,60.8,30.16,West,270,0.0,0.0,91,0.00,,,0.00,WUHU216HW,2013-08-26 12:05:00,
2013-08-26 08:06:00,63.4,60.8,30.16,West,270,0.0,0.0,91,0.00,,,0.00,WUHU216HW,2013-08-26 12:06:00,
2013-08-26 08:07:00,63.4,60.8,30.16,West,270,0.0,0.0,91,0.00,,,0.00,WUHU216HW,2013-08-26 12:07:00,
2013-08-26 08:09:00,63.4,60.8,30.16,West,270,0.0,0.0,91,0.00,,,0.00,WUHU216HW,2013-08-26 12:09:00,
2013-08-26 08:10:00,63.4,60.8,30.16,West,270,0.0,0.0,91,0.00,,,0.00,WUHU216HW,2013-08-26 12:10:00,
2013-08-26 08:11:00,63.4,60.8,30.16,West,270,0.0,0.0,91,0.00,,,0.00,WUHU216HW,2013-08-26 12:11:00,
2013-08-26 08:12:00,63.4,60.8,30.16,WNW,293,0.0,0.0,91,0.00,,,0.00,WUHU216HW,2013-08-26 12:12:00,
2013-08-26 08:15:00,63.4,60.8,30.16,ESE,113,0.0,0.0,91,0.00,,,0.00,WUHU216HW,2013-08-26 12:15:00,
2013-08-26 08:16:00,63.4,60.8,30.16,ESE,113,0.0,0.0,91,0.00,,,0.00,WUHU216HW,2013-08-26 12:16:00,
2013-08-26 08:17:00,63.4,60.5,30.16,ESE,113,0.0,0.0,90,0.00,,,0.00,WUHU216HW,2013-08-26 12:17:00,
2013-08-26 08:18:00,63.4,60.5,30.16,ESE,113,0.0,0.0,90,0.00,,,0.00,WUHU216HW,2013-08-26 12:18:00,
2013-08-26 08:20:00,63.4,60.5,30.16,ESE,113,0.0,0.0,90,0.00,,,0.00,WUHU216HW,2013-08-26 12:20:00,
2013-08-26 08:21:00,63.5,60.7,30.16,ESE,113,0.0,0.0,90,0.00,,,0.00,WUHU216HW,2013-08-26 12:21:00,
2013-08-26 08:22:00,63.7,60.8,30.16,ESE,113,0.0,0.0,90,0.00,,,0.00,WUHU216HW,2013-08-26 12:22:00,
2013-08-26 08:24:00,63.7,60.8,30.16,ESE,113,0.0,0.0,90,0.00,,,0.00,WUHU216HW,2013-08-26 12:24:00,
2013-08-26 08:26:00,64.1,61.2,30.16,ESE,113,0.0,0.0,90,0.00,,,0.00,WUHU216HW,2013-08-26 12:26:00,
2013-08-26 08:27:00,64.3,61.4,30.16,ESE,113,0.0,0.0,90,0.00,,,0.00,WUHU216HW,2013-08-26 12:27:00,
2013-08-26 08:28:00,64.3,61.4,30.16,ESE,113,0.0,0.0,90,0.00,,,0.00,WUHU216HW,2013-08-26 12:28:00,
2013-08-26 08:29:00,64.4,61.6,30.16,ESE,113,0.0,0.0,90,0.00,,,0.00,WUHU216HW,2013-08-26 12:29:00,
2013-08-26 08:31:00,64.6,61.8,30.16,ESE,113,0.0,0.0,90,0.00,,,0.00,WUHU216HW,2013-08-26 12:31:00,
2013-08-26 08:33:00,65.0,62.0,30.16,ESE,113,0.0,0.0,90,0.00,,,0.00,WUHU216HW,2013-08-26 12:33:00,
2013-08-26 08:36:00,65.2,62.2,30.17,ESE,113,0.0,0.0,90,0.00,,,0.00,WUHU216HW,2013-08-26 12:36:00,
2013-08-26 08:38:00,65.5,62.6,30.16,ESE,113,0.0,0.0,90,0.00,,,0.00,WUHU216HW,2013-08-26 12:38:00,
2013-08-26 08:39:00,65.5,62.6,30.16,ESE,113,0.0,0.0,90,0.00,,,0.00,WUHU216HW,2013-08-26 12:39:00,
2013-08-26 08:41:00,66.1,63.4,30.16,ESE,113,0.0,0.0,91,0.00,,,0.00,WUHU216HW,2013-08-26 12:41:00,
2013-08-26 08:43:00,66.2,63.5,30.16,ESE,113,0.0,0.0,91,0.00,,,0.00,WUHU216HW,2013-08-26 12:43:00,
2013-08-26 08:44:00,66.4,63.4,30.16,ESE,113,0.0,0.0,90,0.00,,,0.00,WUHU216HW,2013-08-26 12:44:00,
2013-08-26 08:45:00,66.4,63.4,30.16,ESE,113,0.0,0.0,90,0.00,,,0.00,WUHU216HW,2013-08-26 12:45:00,
2013-08-26 08:47:00,66.8,63.7,30.16,ESE,113,0.0,0.0,90,0.00,,,0.00,WUHU216HW,2013-08-26 12:47:00,
2013-08-26 08:48:00,67.0,63.9,30.16,ESE,113,0.0,0.0,90,0.00,,,0.00,WUHU216HW,2013-08-26 12:48:00,
2013-08-26 08:50:00,67.1,64.1,30.16,ESE,113,0.0,0.0,90,0.00,,,0.00,WUHU216HW,2013-08-26 12:50:00,
2013-08-26 08:53:00,67.7,64.3,30.17,ESE,113,0.0,0.0,89,0.00,,,0.00,WUHU216HW,2013-08-26 12:53:00,
2013-08-26 08:54:00,67.7,64.3,30.17,ESE,113,0.0,0.0,89,0.00,,,0.00,WUHU216HW,2013-08-26 12:54:00,
2013-08-26 08:55:00,67.9,64.4,30.17,SSW,203,0.0,0.0,89,0.00,,,0.00,WUHU216HW,2013-08-26 12:55:00,
2013-08-26 08:56:00,68.0,64.4,30.17,SSW,203,0.0,0.0,88,0.00,,,0.00,WUHU216HW,2013-08-26 12:56:00,
2013-08-26 08:59:00,68.6,64.9,30.17,SSW,203,0.0,0.0,88,0.00,,,0.00,WUHU216HW,2013-08-26 12:59:00,
2013-08-26 09:00:00,68.6,64.9,30.17,SSW,203,0.0,0.0,88,0.00,,,0.00,WUHU216HW,2013-08-26 13:00:00,
2013-08-26 09:01:00,68.8,65.1,30.17,SSW,203,0.0,0.0,88,0.00,,,0.00,WUHU216HW,2013-08-26 13:01:00,
2013-08-26 09:02:00,68.8,65.1,30.17,SSW,203,0.0,0.0,88,0.00,,,0.00,WUHU216HW,2013-08-26 13:02:00,
2013-08-26 09:04:00,69.1,65.4,30.17,SW,225,0.0,0.0,88,0.00,,,0.00,WUHU216HW,2013-08-26 13:04:00,
2013-08-26 09:05:00,69.1,65.4,30.17,SW,225,0.0,0.0,88,0.00,,,0.00,WUHU216HW,2013-08-26 13:05:00,
2013-08-26 09:06:00,69.3,65.3,30.17,SW,225,0.0,0.0,87,0.00,,,0.00,WUHU216HW,2013-08-26 13:06:00,
2013-08-26 09:07:00,69.5,65.4,30.17,SW,225,0.0,0.0,87,0.00,,,0.00,WUHU216HW,2013-08-26 13:07:00,
2013-08-26 09:11:00,70.2,65.8,30.17,ESE,113,0.4,0.4,86,0.00,,,0.00,WUHU216HW,2013-08-26 13:11:00,
2013-08-26 09:12:00,70.2,65.8,30.17,ESE,113,1.1,1.1,86,0.00,,,0.00,WUHU216HW,2013-08-26 13:12:00,
2013-08-26 09:13:00,70.4,66.0,30.17,ESE,121,0.9,1.1,86,0.00,,,0.00,WUHU216HW,2013-08-26 13:13:00,
2013-08-26 09:14:00,70.4,66.0,30.17,ESE,121,0.9,1.1,86,0.00,,,0.00,WUHU216HW,2013-08-26 13:14:00,
2013-08-26 09:16:00,70.6,65.8,30.17,SE,135,0.4,1.1,85,0.00,,,0.00,WUHU216HW,2013-08-26 13:16:00,
2013-08-26 09:17:00,70.7,66.0,30.17,SE,135,0.4,1.1,85,0.00,,,0.00,WUHU216HW,2013-08-26 13:17:00,
2013-08-26 09:18:00,70.7,66.0,30.17,SE,135,0.4,1.1,85,0.00,,,0.00,WUHU216HW,2013-08-26 13:18:00,
2013-08-26 09:19:00,70.7,66.0,30.17,South,180,0.0,1.1,85,0.00,,,0.00,WUHU216HW,2013-08-26 13:19:00,
2013-08-26 09:21:00,70.9,65.8,30.17,South,180,0.0,1.1,84,0.00,,,0.00,WUHU216HW,2013-08-26 13:21:00,
2013-08-26 09:22:00,70.9,65.8,30.17,SE,135,0.4,0.7,84,0.00,,,0.00,WUHU216HW,2013-08-26 13:22:00,
2013-08-26 09:23:00,70.9,65.8,30.17,SE,135,0.4,0.7,84,0.00,,,0.00,WUHU216HW,2013-08-26 13:23:00,
2013-08-26 09:26:00,71.1,66.0,30.17,SE,135,0.0,0.4,84,0.00,,,0.00,WUHU216HW,2013-08-26 13:26:00,
2013-08-26 09:28:00,71.3,66.2,30.17,SSW,203,0.4,0.4,84,0.00,,,0.00,WUHU216HW,2013-08-26 13:28:00,
2013-08-26 09:29:00,71.5,66.3,30.17,SSW,203,0.0,0.4,84,0.00,,,0.00,WUHU216HW,2013-08-26 13:29:00,
2013-08-26 09:31:00,71.8,66.7,30.18,SSW,203,0.0,0.4,84,0.00,,,0.00,WUHU216HW,2013-08-26 13:31:00,
2013-08-26 09:33:00,72.0,66.9,30.18,SSW,203,0.0,0.4,84,0.00,,,0.00,WUHU216HW,2013-08-26 13:33:00,
2013-08-26 09:34:00,72.4,66.9,30.18,SE,135,1.4,1.6,83,0.00,,,0.00,WUHU216HW,2013-08-26 13:34:00,
2013-08-26 09:35:00,72.4,66.9,30.18,SSE,158,1.3,1.6,83,0.00,,,0.00,WUHU216HW,2013-08-26 13:35:00,
2013-08-26 09:36:00,72.5,67.1,30.18,SE,135,1.8,1.8,83,0.00,,,0.00,WUHU216HW,2013-08-26 13:36:00,
2013-08-26 09:38:00,72.9,67.4,30.17,ESE,113,1.3,1.8,83,0.00,,,0.00,WUHU216HW,2013-08-26 13:38:00,
2013-08-26 09:40:00,73.3,67.2,30.18,ESE,113,2.2,2.2,81,0.00,,,0.00,WUHU216HW,2013-08-26 13:40:00,
2013-08-26 09:41:00,73.3,67.2,30.18,ESE,113,2.2,2.2,81,0.00,,,0.00,WUHU216HW,2013-08-26 13:41:00,
2013-08-26 09:42:00,73.4,67.7,30.18,ESE,102,2.0,2.2,82,0.00,,,0.00,WUHU216HW,2013-08-26 13:42:00,
2013-08-26 09:43:00,73.6,67.5,30.18,ESE,113,0.9,2.2,81,0.00,,,0.00,WUHU216HW,2013-08-26 13:43:00,
2013-08-26 09:46:00,74.0,67.9,30.18,ESE,113,1.1,2.2,81,0.00,,,0.00,WUHU216HW,2013-08-26 13:46:00,
2013-08-26 09:47:00,74.2,68.1,30.18,ESE,113,0.8,2.2,81,0.00,,,0.00,WUHU216HW,2013-08-26 13:47:00,
2013-08-26 09:49:00,74.7,68.6,30.17,SSE,158,1.6,2.2,81,0.00,,,0.00,WUHU216HW,2013-08-26 13:49:00,
2013-08-26 09:51:00,75.2,68.4,30.17,WSW,241,1.5,2.0,79,0.00,,,0.00,WUHU216HW,2013-08-26 13:51:00,
2013-08-26 09:52:00,75.2,68.4,30.17,WSW,241,1.5,2.0,79,0.00,,,0.00,WUHU216HW,2013-08-26 13:52:00,
2013-08-26 09:54:00,75.8,68.5,30.17,ESE,113,0.3,2.0,78,0.00,,,0.00,WUHU216HW,2013-08-26 13:54:00,
2013-08-26 09:57:00,76.0,68.7,30.17,SSE,158,1.3,2.0,78,0.00,,,0.00,WUHU216HW,2013-08-26 13:57:00,
2013-08-26 09:59:00,76.3,68.6,30.17,South,180,0.2,2.0,77,0.00,,,0.00,WUHU216HW,2013-08-26 13:59:00,
2013-08-26 10:00:00,76.5,68.8,30.18,WSW,248,1.8,2.2,77,0.00,,,0.00,WUHU216HW,2013-08-26 14:00:00,
2013-08-26 10:02:00,76.7,68.5,30.18,SW,225,0.6,2.2,76,0.00,,,0.00,WUHU216HW,2013-08-26 14:02:00,
2013-08-26 10:03:00,76.7,68.5,30.18,SSE,158,0.4,2.2,76,0.00,,,0.00,WUHU216HW,2013-08-26 14:03:00,
2013-08-26 10:04:00,76.9,68.3,30.17,ESE,113,0.4,2.2,75,0.00,,,0.00,WUHU216HW,2013-08-26 14:04:00,
2013-08-26 10:05:00,76.9,68.3,30.17,SSW,203,1.3,2.2,75,0.00,,,0.00,WUHU216HW,2013-08-26 14:05:00,
2013-08-26 10:08:00,77.0,68.5,30.17,ESE,113,2.0,2.2,75,0.00,,,0.00,WUHU216HW,2013-08-26 14:08:00,
2013-08-26 10:09:00,77.0,68.1,30.17,ESE,113,2.5,2.5,74,0.00,,,0.00,WUHU216HW,2013-08-26 14:09:00,
2013-08-26 10:10:00,77.0,67.8,30.17,SE,135,2.5,2.5,73,0.00,,,0.00,WUHU216HW,2013-08-26 14:10:00,
2013-08-26 10:12:00,77.0,67.8,30.17,SE,127,1.9,2.5,73,0.00,,,0.00,WUHU216HW,2013-08-26 14:12:00,
2013-08-26 10:13:00,77.0,67.8,30.17,East,90,1.9,2.5,73,0.00,,,0.00,WUHU216HW,2013-08-26 14:13:00,
2013-08-26 10:14:00,77.0,67.8,30.17,East,90,0.8,2.5,73,0.00,,,0.00,WUHU216HW,2013-08-26 14:14:00,
2013-08-26 10:15:00,77.0,68.1,30.18,SW,225,2.2,2.5,74,0.00,,,0.00,WUHU216HW,2013-08-26 14:15:00,
2013-08-26 10:16:00,77.0,68.1,30.18,SW,225,1.5,2.5,74,0.00,,,0.00,WUHU216HW,2013-08-26 14:16:00,
2013-08-26 10:17:00,77.0,68.1,30.18,SW,225,0.9,2.5,74,0.00,,,0.00,WUHU216HW,2013-08-26 14:17:00,
2013-08-26 10:20:00,77.2,68.3,30.18,WSW,248,2.0,2.5,74,0.00,,,0.00,WUHU216HW,2013-08-26 14:20:00,
2013-08-26 10:22:00,77.6,68.2,30.18,East,90,1.1,2.2,73,0.00,,,0.00,WUHU216HW,2013-08-26 14:22:00,
2013-08-26 10:25:00,77.4,67.7,30.18,East,90,1.8,2.0,72,0.00,,,0.00,WUHU216HW,2013-08-26 14:25:00,
2013-08-26 10:26:00,77.4,67.7,30.18,East,90,1.8,2.0,72,0.00,,,0.00,WUHU216HW,2013-08-26 14:26:00,
2013-08-26 10:27:00,77.6,67.9,30.18,SE,127,1.3,2.0,72,0.00,,,0.00,WUHU216HW,2013-08-26 14:27:00,
2013-08-26 10:28:00,77.8,68.1,30.18,ESE,113,0.6,2.0,72,0.00,,,0.00,WUHU216HW,2013-08-26 14:28:00,
2013-08-26 10:30:00,78.1,68.3,30.18,East,90,0.8,1.8,72,0.00,,,0.00,WUHU216HW,2013-08-26 14:30:00,
2013-08-26 10:31:00,78.3,68.1,30.18,SSW,203,1.6,1.8,71,0.00,,,0.00,WUHU216HW,2013-08-26 14:31:00,
2013-08-26 10:33:00,78.5,68.3,30.18,SSW,203,0.9,1.8,71,0.00,,,0.00,WUHU216HW,2013-08-26 14:33:00,
2013-08-26 10:34:00,78.5,68.3,30.18,SSW,203,0.9,1.8,71,0.00,,,0.00,WUHU216HW,2013-08-26 14:34:00,
2013-08-26 10:36:00,78.8,68.6,30.18,SE,127,1.0,1.6,71,0.00,,,0.00,WUHU216HW,2013-08-26 14:36:00,
2013-08-26 10:37:00,78.7,67.2,30.18,ENE,70,1.0,1.6,68,0.00,,,0.00,WUHU216HW,2013-08-26 14:37:00,
2013-08-26 10:39:00,78.5,67.1,30.18,NE,52,0.6,1.6,68,0.00,,,0.00,WUHU216HW,2013-08-26 14:39:00,
2013-08-26 10:41:00,78.1,67.2,30.18,NW,315,0.4,1.3,69,0.00,,,0.00,WUHU216HW,2013-08-26 14:41:00,
2013-08-26 10:43:00,78.1,67.2,30.18,SSW,203,0.9,1.3,69,0.00,,,0.00,WUHU216HW,2013-08-26 14:43:00,
2013-08-26 10:44:00,78.3,67.3,30.18,SW,222,0.8,1.1,69,0.00,,,0.00,WUHU216HW,2013-08-26 14:44:00,
2013-08-26 10:45:00,78.3,66.9,30.18,SW,225,1.3,1.3,68,0.00,,,0.00,WUHU216HW,2013-08-26 14:45:00,
2013-08-26 10:47:00,78.5,67.5,30.18,South,180,1.3,1.3,69,0.00,,,0.00,WUHU216HW,2013-08-26 14:47:00,
2013-08-26 10:48:00,78.5,67.5,30.18,SE,135,1.3,1.3,69,0.00,,,0.00,WUHU216HW,2013-08-26 14:48:00,
2013-08-26 10:49:00,78.8,67.8,30.18,SE,127,1.0,1.3,69,0.00,,,0.00,WUHU216HW,2013-08-26 14:49:00,
2013-08-26 10:50:00,78.8,67.8,30.18,SE,127,1.0,1.3,69,0.00,,,0.00,WUHU216HW,2013-08-26 14:50:00,
2013-08-26 10:51:00,78.8,67.3,30.18,ESE,113,2.3,2.5,68,0.00,,,0.00,WUHU216HW,2013-08-26 14:51:00,
2013-08-26 10:53:00,79.0,67.2,30.18,ESE,102,2.5,2.7,67,0.00,,,0.00,WUHU216HW,2013-08-26 14:53:00,
2013-08-26 10:55:00,79.0,66.7,30.18,East,80,2.0,2.7,66,0.00,,,0.00,WUHU216HW,2013-08-26 14:55:00,
2013-08-26 10:56:00,79.2,66.9,30.18,ENE,60,1.3,2.7,66,0.00,,,0.00,WUHU216HW,2013-08-26 14:56:00,
2013-08-26 10:57:00,79.2,66.9,30.18,East,90,2.0,2.7,66,0.00,,,0.00,WUHU216HW,2013-08-26 14:57:00,
2013-08-26 11:00:00,79.0,66.7,30.18,ESE,113,1.1,2.7,66,0.00,,,0.00,WUHU216HW,2013-08-26 15:00:00,
2013-08-26 11:01:00,78.8,67.0,30.18,SSE,156,0.7,2.7,67,0.00,,,0.00,WUHU216HW,2013-08-26 15:01:00,
2013-08-26 11:02:00,79.0,67.2,30.18,NNW,338,1.1,2.7,67,0.00,,,0.00,WUHU216HW,2013-08-26 15:02:00,
2013-08-26 11:06:00,79.4,67.4,30.18,ESE,113,2.5,2.5,67,0.00,,,0.00,WUHU216HW,2013-08-26 15:06:00,
2013-08-26 11:07:00,79.4,67.1,30.18,ESE,113,4.0,4.0,66,0.00,,,0.00,WUHU216HW,2013-08-26 15:07:00,
2013-08-26 11:08:00,79.6,66.8,30.18,ESE,113,3.5,4.0,65,0.00,,,0.00,WUHU216HW,2013-08-26 15:08:00,
2013-08-26 11:09:00,79.6,66.3,30.18,ESE,102,2.8,4.0,64,0.00,,,0.00,WUHU216HW,2013-08-26 15:09:00,
2013-08-26 11:11:00,79.6,66.8,30.18,East,90,1.5,4.0,65,0.00,,,0.00,WUHU216HW,2013-08-26 15:11:00,
2013-08-26 11:12:00,79.6,66.3,30.18,East,85,0.8,4.0,64,0.00,,,0.00,WUHU216HW,2013-08-26 15:12:00,
2013-08-26 11:13:00,79.4,65.7,30.18,ENE,68,1.1,4.0,63,0.00,,,0.00,WUHU216HW,2013-08-26 15:13:00,
2013-08-26 11:14:00,79.4,65.7,30.18,North,0,1.1,4.0,63,0.00,,,0.00,WUHU216HW,2013-08-26 15:14:00,
2013-08-26 11:17:00,79.2,66.4,30.18,ESE,113,1.6,2.9,65,0.00,,,0.00,WUHU216HW,2013-08-26 15:17:00,
2013-08-26 11:19:00,79.4,66.2,30.18,ENE,68,2.7,2.7,64,0.00,,,0.00,WUHU216HW,2013-08-26 15:19:00,
2013-08-26 11:20:00,79.2,66.0,30.18,ENE,68,1.1,2.7,64,0.00,,,0.00,WUHU216HW,2013-08-26 15:20:00,
2013-08-26 11:23:00,79.2,66.4,30.19,NE,53,0.3,2.7,65,0.00,,,0.00,WUHU216HW,2013-08-26 15:23:00,
2013-08-26 11:24:00,79.2,66.4,30.19,NNE,23,0.2,2.7,65,0.00,,,0.00,WUHU216HW,2013-08-26 15:24:00,
2013-08-26 11:27:00,79.6,65.9,30.18,North,0,1.1,2.7,63,0.00,,,0.00,WUHU216HW,2013-08-26 15:27:00,
2013-08-26 11:28:00,79.7,66.5,30.18,ESE,113,1.3,1.3,64,0.00,,,0.00,WUHU216HW,2013-08-26 15:28:00,
2013-08-26 11:30:00,79.9,66.6,30.18,ESE,113,1.8,1.8,64,0.00,,,0.00,WUHU216HW,2013-08-26 15:30:00,
2013-08-26 11:31:00,80.3,67.0,30.18,SE,126,1.1,1.8,64,0.00,,,0.00,WUHU216HW,2013-08-26 15:31:00,
2013-08-26 11:33:00,80.5,66.7,30.18,East,90,2.0,2.0,63,0.00,,,0.00,WUHU216HW,2013-08-26 15:33:00,
2013-08-26 11:34:00,80.5,66.7,30.18,East,90,2.0,2.0,63,0.00,,,0.00,WUHU216HW,2013-08-26 15:34:00,
2013-08-26 11:35:00,80.5,66.7,30.18,ESE,113,3.4,3.4,63,0.00,,,0.00,WUHU216HW,2013-08-26 15:35:00,
2013-08-26 11:36:00,80.5,66.7,30.18,ESE,105,2.6,3.4,63,0.00,,,0.00,WUHU216HW,2013-08-26 15:36:00,
2013-08-26 11:38:00,80.5,66.7,30.18,SSW,203,2.2,3.4,63,0.00,,,0.00,WUHU216HW,2013-08-26 15:38:00,
2013-08-26 11:39:00,80.6,67.3,30.18,SSW,194,1.3,3.4,64,0.00,,,0.00,WUHU216HW,2013-08-26 15:39:00,
2013-08-26 11:41:00,80.6,67.3,30.18,SSW,203,0.7,3.4,64,0.00,,,0.00,WUHU216HW,2013-08-26 15:41:00,
2013-08-26 11:42:00,80.8,67.5,30.18,SSE,158,1.8,3.4,64,0.00,,,0.00,WUHU216HW,2013-08-26 15:42:00,
2013-08-26 11:44:00,81.4,67.1,30.18,ESE,113,4.3,4.3,62,0.00,,,0.00,WUHU216HW,2013-08-26 15:44:00,
2013-08-26 11:45:00,81.4,67.1,30.18,ESE,113,4.3,4.3,62,0.00,,,0.00,WUHU216HW,2013-08-26 15:45:00,
2013-08-26 11:46:00,81.5,67.7,30.18,SE,125,1.8,4.3,63,0.00,,,0.00,WUHU216HW,2013-08-26 15:46:00,
2013-08-26 11:47:00,81.4,67.1,30.18,East,90,2.5,4.3,62,0.00,,,0.00,WUHU216HW,2013-08-26 15:47:00,
2013-08-26 11:49:00,81.5,67.2,30.18,SE,135,2.7,4.3,62,0.00,,,0.00,WUHU216HW,2013-08-26 15:49:00,
2013-08-26 11:51:00,81.7,67.4,30.18,SE,129,1.9,4.3,62,0.00,,,0.00,WUHU216HW,2013-08-26 15:51:00,
2013-08-26 11:53:00,81.9,67.2,30.18,East,90,2.7,4.3,61,0.00,,,0.00,WUHU216HW,2013-08-26 15:53:00,
2013-08-26 11:55:00,82.1,67.2,30.18,WSW,248,0.4,2.7,61,0.00,,,0.00,WUHU216HW,2013-08-26 15:55:00,
2013-08-26 11:56:00,82.1,67.2,30.18,NNW,338,0.7,2.7,61,0.00,,,0.00,WUHU216HW,2013-08-26 15:56:00,
2013-08-26 11:59:00,82.3,67.0,30.18,NNW,343,0.8,2.7,60,0.00,,,0.00,WUHU216HW,2013-08-26 15:59:00,
2013-08-26 12:01:00,82.3,66.4,30.18,ESE,113,1.1,2.7,59,0.00,,,0.00,WUHU216HW,2013-08-26 16:01:00,
2013-08-26 12:02:00,82.3,66.4,30.17,SE,135,1.8,1.8,59,0.00,,,0.00,WUHU216HW,2013-08-26 16:02:00,
2013-08-26 12:04:00,82.3,66.4,30.17,SE,135,1.6,1.8,59,0.00,,,0.00,WUHU216HW,2013-08-26 16:04:00,
2013-08-26 12:05:00,82.4,67.1,30.17,SE,135,2.0,2.0,60,0.00,,,0.00,WUHU216HW,2013-08-26 16:05:00,
2013-08-26 12:07:00,82.4,67.1,30.17,SE,125,1.2,2.0,60,0.00,,,0.00,WUHU216HW,2013-08-26 16:07:00,
2013-08-26 12:08:00,82.6,67.3,30.17,ESE,113,0.7,2.0,60,0.00,,,0.00,WUHU216HW,2013-08-26 16:08:00,
2013-08-26 12:10:00,83.0,67.7,30.17,West,270,2.2,2.2,60,0.00,,,0.00,WUHU216HW,2013-08-26 16:10:00,
2013-08-26 12:11:00,83.2,67.3,30.17,West,280,1.3,2.2,59,0.00,,,0.00,WUHU216HW,2013-08-26 16:11:00,
2013-08-26 12:13:00,83.2,67.3,30.17,NNW,338,0.2,2.2,59,0.00,,,0.00,WUHU216HW,2013-08-26 16:13:00,
2013-08-26 12:14:00,83.2,66.8,30.17,North,0,1.3,2.2,58,0.00,,,0.00,WUHU216HW,2013-08-26 16:14:00,
2013-08-26 12:15:00,83.2,66.8,30.17,North,354,0.8,2.2,58,0.00,,,0.00,WUHU216HW,2013-08-26 16:15:00,
2013-08-26 12:16:00,83.2,66.8,30.17,North,0,0.4,2.2,58,0.00,,,0.00,WUHU216HW,2013-08-26 16:16:00,
2013-08-26 12:18:00,83.0,66.6,30.17,WNW,293,1.8,2.2,58,0.00,,,0.00,WUHU216HW,2013-08-26 16:18:00,
2013-08-26 12:19:00,82.8,66.4,30.17,West,261,1.7,2.2,58,0.00,,,0.00,WUHU216HW,2013-08-26 16:19:00,
2013-08-26 12:20:00,82.8,66.0,30.17,WSW,248,1.3,1.8,57,0.00,,,0.00,WUHU216HW,2013-08-26 16:20:00,
2013-08-26 12:21:00,82.6,66.8,30.17,SW,225,2.5,2.5,59,0.00,,,0.00,WUHU216HW,2013-08-26 16:21:00,
2013-08-26 12:23:00,82.4,66.6,30.17,North,0,1.1,2.5,59,0.00,,,0.00,WUHU216HW,2013-08-26 16:23:00,
2013-08-26 12:24:00,82.4,66.1,30.17,North,0,1.1,2.5,58,0.00,,,0.00,WUHU216HW,2013-08-26 16:24:00,
2013-08-26 12:26:00,82.4,66.1,30.16,NW,315,1.3,2.5,58,0.00,,,0.00,WUHU216HW,2013-08-26 16:26:00,
2013-08-26 12:27:00,82.4,65.1,30.16,NW,315,1.8,2.5,56,0.00,,,0.00,WUHU216HW,2013-08-26 16:27:00,
2013-08-26 12:28:00,82.4,65.6,30.16,NW,315,1.0,2.5,57,0.00,,,0.00,WUHU216HW,2013-08-26 16:28:00,
2013-08-26 12:30:00,82.4,65.1,30.16,WNW,293,1.8,2.5,56,0.00,,,0.00,WUHU216HW,2013-08-26 16:30:00,
2013-08-26 12:32:00,82.6,65.8,30.16,North,0,3.4,3.4,57,0.00,,,0.00,WUHU216HW,2013-08-26 16:32:00,
2013-08-26 12:33:00,82.8,66.0,30.16,North,0,2.5,3.4,57,0.00,,,0.00,WUHU216HW,2013-08-26 16:33:00,
2013-08-26 12:35:00,82.8,66.0,30.16,SSE,147,0.6,3.4,57,0.00,,,0.00,WUHU216HW,2013-08-26 16:35:00,
2013-08-26 12:37:00,83.0,66.2,30.16,North,0,0.7,3.4,57,0.00,,,0.00,WUHU216HW,2013-08-26 16:37:00,
2013-08-26 12:38:00,83.0,66.6,30.16,WSW,248,1.3,3.4,58,0.00,,,0.00,WUHU216HW,2013-08-26 16:38:00,
2013-08-26 12:39:00,83.2,66.8,30.16,West,268,1.2,3.4,58,0.00,,,0.00,WUHU216HW,2013-08-26 16:39:00,
2013-08-26 12:40:00,83.2,66.8,30.16,North,0,1.1,3.4,58,0.00,,,0.00,WUHU216HW,2013-08-26 16:40:00,
2013-08-26 12:42:00,83.2,65.8,30.16,NNE,23,4.0,4.0,56,0.00,,,0.00,WUHU216HW,2013-08-26 16:42:00,
2013-08-26 12:43:00,83.2,65.8,30.16,NNE,29,2.9,4.0,56,0.00,,,0.00,WUHU216HW,2013-08-26 16:43:00,
2013-08-26 12:45:00,83.0,64.0,30.16,North,0,3.2,4.0,53,0.00,,,0.00,WUHU216HW,2013-08-26 16:45:00,
2013-08-26 12:46:00,82.6,64.2,30.16,North,0,1.6,4.0,54,0.00,,,0.00,WUHU216HW,2013-08-26 16:46:00,
2013-08-26 12:47:00,82.4,63.5,30.16,East,90,4.5,4.5,53,0.00,,,0.00,WUHU216HW,2013-08-26 16:47:00,
2013-08-26 12:48:00,82.3,64.4,30.16,ESE,114,3.2,4.5,55,0.00,,,0.00,WUHU216HW,2013-08-26 16:48:00,
2013-08-26 12:50:00,82.3,66.0,30.15,SSW,203,2.5,4.5,58,0.00,,,0.00,WUHU216HW,2013-08-26 16:50:00,
2013-08-26 12:51:00,82.3,66.0,30.15,SSW,203,2.5,4.5,58,0.00,,,0.00,WUHU216HW,2013-08-26 16:51:00,
2013-08-26 12:53:00,82.4,65.6,30.15,NNE,16,1.9,4.5,57,0.00,,,0.00,WUHU216HW,2013-08-26 16:53:00,
2013-08-26 12:55:00,82.6,65.8,30.15,ESE,113,3.4,4.5,57,0.00,,,0.00,WUHU216HW,2013-08-26 16:55:00,
2013-08-26 12:56:00,82.6,65.8,30.15,ESE,120,2.6,4.5,57,0.00,,,0.00,WUHU216HW,2013-08-26 16:56:00,
2013-08-26 12:58:00,83.0,66.2,30.15,East,89,3.6,3.8,57,0.00,,,0.00,WUHU216HW,2013-08-26 16:58:00,
2013-08-26 13:00:00,83.2,63.2,30.15,NE,45,3.1,3.8,51,0.00,,,0.00,WUHU216HW,2013-08-26 17:00:00,
2013-08-26 13:01:00,83.0,64.0,30.15,NE,53,2.5,3.8,53,0.00,,,0.00,WUHU216HW,2013-08-26 17:01:00,
2013-08-26 13:03:00,82.4,63.0,30.15,NE,45,2.2,3.8,52,0.00,,,0.00,WUHU216HW,2013-08-26 17:03:00,
2013-08-26 13:05:00,82.1,63.2,30.15,NE,45,2.7,3.8,53,0.00,,,0.00,WUHU216HW,2013-08-26 17:05:00,
2013-08-26 13:06:00,81.9,64.1,30.15,East,90,2.5,3.4,55,0.00,,,0.00,WUHU216HW,2013-08-26 17:06:00,
2013-08-26 13:07:00,81.9,64.1,30.15,ESE,113,2.9,3.1,55,0.00,,,0.00,WUHU216HW,2013-08-26 17:07:00,
2013-08-26 13:08:00,82.1,65.3,30.15,SSE,153,2.7,3.1,57,0.00,,,0.00,WUHU216HW,2013-08-26 17:08:00,
2013-08-26 13:09:00,82.1,65.3,30.15,SSW,203,2.5,3.1,57,0.00,,,0.00,WUHU216HW,2013-08-26 17:09:00,
2013-08-26 13:11:00,83.2,66.8,30.15,South,189,2.5,2.9,58,0.00,,,0.00,WUHU216HW,2013-08-26 17:11:00,
2013-08-26 13:12:00,83.3,67.5,30.15,SSW,203,2.9,2.9,59,0.00,,,0.00,WUHU216HW,2013-08-26 17:12:00,
2013-08-26 13:14:00,83.9,68.0,30.15,West,270,1.6,2.9,59,0.00,,,0.00,WUHU216HW,2013-08-26 17:14:00,
2013-08-26 13:17:00,84.4,67.1,30.15,NNW,336,1.8,2.9,56,0.00,,,0.00,WUHU216HW,2013-08-26 17:17:00,
2013-08-26 13:18:00,84.6,67.1,30.14,North,0,1.3,2.9,56,0.00,,,0.00,WUHU216HW,2013-08-26 17:18:00,
2013-08-26 13:19:00,84.6,66.7,30.14,NW,325,1.1,2.9,55,0.00,,,0.00,WUHU216HW,2013-08-26 17:19:00,
2013-08-26 13:20:00,85.0,67.5,30.14,SSW,203,1.8,2.9,56,0.00,,,0.00,WUHU216HW,2013-08-26 17:20:00,
2013-08-26 13:22:00,85.1,68.2,30.15,West,266,2.0,3.4,57,0.00,,,0.00,WUHU216HW,2013-08-26 17:22:00,
2013-08-26 13:23:00,85.1,68.2,30.14,NNE,23,1.3,3.4,57,0.00,,,0.00,WUHU216HW,2013-08-26 17:23:00,
2013-08-26 13:24:00,85.1,68.2,30.14,NNE,23,1.3,3.4,57,0.00,,,0.00,WUHU216HW,2013-08-26 17:24:00,
2013-08-26 13:25:00,85.1,67.1,30.14,WNW,293,2.5,3.4,55,0.00,,,0.00,WUHU216HW,2013-08-26 17:25:00,
2013-08-26 13:26:00,85.1,67.1,30.14,WNW,293,2.5,3.4,55,0.00,,,0.00,WUHU216HW,2013-08-26 17:26:00,
2013-08-26 13:28:00,84.6,67.1,30.15,North,0,1.1,3.4,56,0.00,,,0.00,WUHU216HW,2013-08-26 17:28:00,
2013-08-26 13:29:00,84.6,67.1,30.15,NW,315,1.3,3.4,56,0.00,,,0.00,WUHU216HW,2013-08-26 17:29:00,
2013-08-26 13:31:00,84.2,66.9,30.15,NW,315,0.4,2.5,56,0.00,,,0.00,WUHU216HW,2013-08-26 17:31:00,
2013-08-26 13:33:00,84.1,66.7,30.14,WSW,255,0.9,2.5,56,0.00,,,0.00,WUHU216HW,2013-08-26 17:33:00,
2013-08-26 13:34:00,84.1,67.2,30.14,NW,315,0.3,2.5,57,0.00,,,0.00,WUHU216HW,2013-08-26 17:34:00,
2013-08-26 13:36:00,84.2,66.9,30.14,NNW,338,1.1,1.6,56,0.00,,,0.00,WUHU216HW,2013-08-26 17:36:00,
2013-08-26 13:37:00,84.4,67.5,30.14,North,0,1.8,1.8,57,0.00,,,0.00,WUHU216HW,2013-08-26 17:37:00,
2013-08-26 13:38:00,84.6,67.1,30.14,North,0,3.4,3.4,56,0.00,,,0.00,WUHU216HW,2013-08-26 17:38:00,
2013-08-26 13:39:00,84.8,66.8,30.14,NNE,31,3.2,3.4,55,0.00,,,0.00,WUHU216HW,2013-08-26 17:39:00,
2013-08-26 13:41:00,84.8,66.8,30.14,ESE,113,2.5,3.4,55,0.00,,,0.00,WUHU216HW,2013-08-26 17:41:00,
2013-08-26 13:42:00,84.8,66.8,30.14,ESE,113,2.5,3.4,55,0.00,,,0.00,WUHU216HW,2013-08-26 17:42:00,
2013-08-26 13:43:00,85.0,66.4,30.14,North,0,4.5,4.5,54,0.00,,,0.00,WUHU216HW,2013-08-26 17:43:00,
2013-08-26 13:44:00,85.0,66.4,30.14,North,0,4.5,4.5,54,0.00,,,0.00,WUHU216HW,2013-08-26 17:44:00,
2013-08-26 13:45:00,84.8,65.3,30.14,NNE,17,3.7,4.5,52,0.00,,,0.00,WUHU216HW,2013-08-26 17:45:00,
2013-08-26 13:47:00,84.6,66.2,30.14,East,81,1.4,4.5,54,0.00,,,0.00,WUHU216HW,2013-08-26 17:47:00,
2013-08-26 13:48:00,84.6,66.2,30.14,WSW,248,2.0,4.5,54,0.00,,,0.00,WUHU216HW,2013-08-26 17:48:00,
2013-08-26 13:49:00,84.6,67.1,30.14,WSW,243,1.6,4.5,56,0.00,,,0.00,WUHU216HW,2013-08-26 17:49:00,
2013-08-26 13:50:00,84.8,66.8,30.14,NE,45,1.1,4.5,55,0.00,,,0.00,WUHU216HW,2013-08-26 17:50:00,
2013-08-26 13:53:00,84.8,67.3,30.14,North,0,3.1,4.5,56,0.00,,,0.00,WUHU216HW,2013-08-26 17:53:00,
2013-08-26 13:55:00,84.8,67.3,30.14,North,0,0.4,3.1,56,0.00,,,0.00,WUHU216HW,2013-08-26 17:55:00,
2013-08-26 13:56:00,84.8,67.3,30.14,NW,315,2.5,3.1,56,0.00,,,0.00,WUHU216HW,2013-08-26 17:56:00,
2013-08-26 13:59:00,85.0,67.0,30.13,WNW,293,1.0,3.1,55,0.00,,,0.00,WUHU216HW,2013-08-26 17:59:00,
2013-08-26 14:01:00,85.0,67.0,30.13,West,274,0.9,3.1,55,0.00,,,0.00,WUHU216HW,2013-08-26 18:01:00,
2013-08-26 14:04:00,85.3,67.3,30.13,NNW,338,2.0,2.9,55,0.00,,,0.00,WUHU216HW,2013-08-26 18:04:00,
2013-08-26 14:05:00,85.3,67.3,30.13,NNW,338,1.6,2.9,55,0.00,,,0.00,WUHU216HW,2013-08-26 18:05:00,
2013-08-26 14:06:00,85.3,67.3,30.13,North,0,1.8,2.9,55,0.00,,,0.00,WUHU216HW,2013-08-26 18:06:00,
2013-08-26 14:07:00,85.3,67.3,30.13,North,356,1.1,2.9,55,0.00,,,0.00,WUHU216HW,2013-08-26 18:07:00,
2013-08-26 14:10:00,84.6,66.2,30.13,NNE,23,2.0,2.9,54,0.00,,,0.00,WUHU216HW,2013-08-26 18:10:00,
2013-08-26 14:11:00,84.4,66.0,30.13,NNE,23,0.9,2.9,54,0.00,,,0.00,WUHU216HW,2013-08-26 18:11:00,
2013-08-26 14:12:00,84.4,66.5,30.13,WNW,293,0.7,2.9,55,0.00,,,0.00,WUHU216HW,2013-08-26 18:12:00,
2013-08-26 14:13:00,84.4,66.5,30.12,North,0,1.1,2.5,55,0.00,,,0.00,WUHU216HW,2013-08-26 18:13:00,
2013-08-26 14:15:00,84.4,66.0,30.12,NNW,338,1.1,2.5,54,0.00,,,0.00,WUHU216HW,2013-08-26 18:15:00,
2013-08-26 14:16:00,84.6,66.7,30.12,North,0,0.9,2.5,55,0.00,,,0.00,WUHU216HW,2013-08-26 18:16:00,
2013-08-26 14:17:00,84.6,66.2,30.12,ENE,68,1.3,2.5,54,0.00,,,0.00,WUHU216HW,2013-08-26 18:17:00,
2013-08-26 14:18:00,84.4,65.4,30.12,NNE,23,1.6,2.5,53,0.00,,,0.00,WUHU216HW,2013-08-26 18:18:00,
2013-08-26 14:19:00,84.4,66.0,30.12,NE,48,1.1,1.6,54,0.00,,,0.00,WUHU216HW,2013-08-26 18:19:00,
2013-08-26 14:20:00,84.2,66.3,30.12,SSW,203,1.1,1.6,55,0.00,,,0.00,WUHU216HW,2013-08-26 18:20:00,
2013-08-26 14:22:00,84.6,66.7,30.12,NNE,23,2.5,2.5,55,0.00,,,0.00,WUHU216HW,2013-08-26 18:22:00,
2013-08-26 14:23:00,84.6,65.6,30.12,NNE,23,2.0,2.5,53,0.00,,,0.00,WUHU216HW,2013-08-26 18:23:00,
2013-08-26 14:24:00,84.6,65.1,30.12,North,0,2.7,2.7,52,0.00,,,0.00,WUHU216HW,2013-08-26 18:24:00,
2013-08-26 14:25:00,84.4,65.4,30.12,North,11,1.8,2.7,53,0.00,,,0.00,WUHU216HW,2013-08-26 18:25:00,
2013-08-26 14:28:00,84.4,66.5,30.12,NE,45,3.8,3.8,55,0.00,,,0.00,WUHU216HW,2013-08-26 18:28:00,
2013-08-26 14:30:00,84.8,66.3,30.12,ENE,68,0.4,3.8,54,0.00,,,0.00,WUHU216HW,2013-08-26 18:30:00,
2013-08-26 14:32:00,85.1,66.6,30.12,ESE,113,1.1,3.8,54,0.00,,,0.00,WUHU216HW,2013-08-26 18:32:00,
2013-08-26 14:33:00,85.3,67.3,30.12,SSE,152,1.0,3.8,55,0.00,,,0.00,WUHU216HW,2013-08-26 18:33:00,
2013-08-26 14:34:00,85.7,67.6,30.12,SSW,203,0.9,3.8,55,0.00,,,0.00,WUHU216HW,2013-08-26 18:34:00,
2013-08-26 14:35:00,85.9,67.8,30.12,SSW,203,0.4,3.8,55,0.00,,,0.00,WUHU216HW,2013-08-26 18:35:00,
2013-08-26 14:38:00,86.6,68.0,30.12,WNW,296,1.1,1.3,54,0.00,,,0.00,WUHU216HW,2013-08-26 18:38:00,
2013-08-26 14:39:00,86.6,68.0,30.12,West,271,0.8,1.3,54,0.00,,,0.00,WUHU216HW,2013-08-26 18:39:00,
2013-08-26 14:40:00,86.8,67.6,30.12,North,0,0.9,1.3,53,0.00,,,0.00,WUHU216HW,2013-08-26 18:40:00,
2013-08-26 14:41:00,86.8,67.6,30.12,North,0,0.9,1.3,53,0.00,,,0.00,WUHU216HW,2013-08-26 18:41:00,
2013-08-26 14:44:00,86.4,67.8,30.11,NNW,330,2.8,3.8,54,0.00,,,0.00,WUHU216HW,2013-08-26 18:44:00,
2013-08-26 14:45:00,86.4,67.8,30.11,ENE,68,2.9,3.8,54,0.00,,,0.00,WUHU216HW,2013-08-26 18:45:00,
2013-08-26 14:46:00,86.4,67.8,30.11,ENE,68,2.9,3.8,54,0.00,,,0.00,WUHU216HW,2013-08-26 18:46:00,
2013-08-26 14:49:00,86.0,68.0,30.12,North,0,2.5,3.8,55,0.00,,,0.00,WUHU216HW,2013-08-26 18:49:00,
2013-08-26 14:51:00,85.9,67.2,30.12,North,355,1.6,3.8,54,0.00,,,0.00,WUHU216HW,2013-08-26 18:51:00,
2013-08-26 14:55:00,86.0,68.5,30.11,North,0,0.7,2.5,56,0.00,,,0.00,WUHU216HW,2013-08-26 18:55:00,
2013-08-26 14:56:00,86.0,66.9,30.11,East,90,2.0,2.5,53,0.00,,,0.00,WUHU216HW,2013-08-26 18:56:00,
2013-08-26 14:57:00,85.9,67.2,30.11,ENE,60,1.8,2.5,54,0.00,,,0.00,WUHU216HW,2013-08-26 18:57:00,
2013-08-26 15:00:00,85.0,65.4,30.11,NE,45,0.9,2.7,52,0.00,,,0.00,WUHU216HW,2013-08-26 19:00:00,
2013-08-26 15:02:00,84.6,66.7,30.11,NNE,23,1.3,2.7,55,0.00,,,0.00,WUHU216HW,2013-08-26 19:02:00,
2013-08-26 15:07:00,85.3,68.3,30.11,West,273,0.6,2.7,57,0.00,,,0.00,WUHU216HW,2013-08-26 19:07:00,
2013-08-26 15:08:00,85.5,68.0,30.11,ESE,113,3.4,3.4,56,0.00,,,0.00,WUHU216HW,2013-08-26 19:08:00,
2013-08-26 15:09:00,85.7,68.1,30.11,ESE,122,3.0,3.4,56,0.00,,,0.00,WUHU216HW,2013-08-26 19:09:00,
2013-08-26 15:13:00,86.6,69.0,30.10,South,188,1.5,3.4,56,0.00,,,0.00,WUHU216HW,2013-08-26 19:13:00,
2013-08-26 15:14:00,86.8,69.1,30.10,ESE,113,1.6,3.4,56,0.00,,,0.00,WUHU216HW,2013-08-26 19:14:00,
2013-08-26 15:18:00,87.1,68.4,30.10,SE,135,2.6,4.3,54,0.00,,,0.00,WUHU216HW,2013-08-26 19:18:00,
2013-08-26 15:19:00,87.1,68.9,30.10,ENE,69,1.2,4.3,55,0.00,,,0.00,WUHU216HW,2013-08-26 19:19:00,
2013-08-26 15:20:00,87.3,69.7,30.10,WSW,248,0.4,4.3,56,0.00,,,0.00,WUHU216HW,2013-08-26 19:20:00,
2013-08-26 15:23:00,87.8,70.2,30.10,SW,225,0.9,4.3,56,0.00,,,0.00,WUHU216HW,2013-08-26 19:23:00,
2013-08-26 15:24:00,88.0,69.9,30.10,West,270,5.6,5.6,55,0.00,,,0.00,WUHU216HW,2013-08-26 19:24:00,
2013-08-26 15:25:00,88.2,69.5,30.10,West,263,3.3,5.6,54,0.00,,,0.00,WUHU216HW,2013-08-26 19:25:00,
2013-08-26 15:28:00,88.2,69.0,30.10,SSW,203,2.2,5.6,53,0.00,,,0.00,WUHU216HW,2013-08-26 19:28:00,
2013-08-26 15:29:00,88.0,67.7,30.09,West,265,1.7,5.6,51,0.00,,,0.00,WUHU216HW,2013-08-26 19:29:00,
2013-08-26 15:31:00,87.5,67.7,30.09,WSW,248,2.2,5.6,52,0.00,,,0.00,WUHU216HW,2013-08-26 19:31:00,
2013-08-26 15:33:00,86.9,67.8,30.09,SSW,203,0.4,5.6,53,0.00,,,0.00,WUHU216HW,2013-08-26 19:33:00,
2013-08-26 15:35:00,86.8,67.1,30.09,North,0,1.3,2.2,52,0.00,,,0.00,WUHU216HW,2013-08-26 19:35:00,
2013-08-26 15:36:00,86.4,66.7,30.09,North,0,1.8,2.2,52,0.00,,,0.00,WUHU216HW,2013-08-26 19:36:00,
2013-08-26 15:37:00,85.7,66.1,30.09,NNE,30,1.5,2.2,52,0.00,,,0.00,WUHU216HW,2013-08-26 19:37:00,
2013-08-26 15:38:00,85.3,65.7,30.09,NE,45,1.3,2.2,52,0.00,,,0.00,WUHU216HW,2013-08-26 19:38:00,
2013-08-26 15:39:00,85.1,66.1,30.09,East,90,1.6,2.2,53,0.00,,,0.00,WUHU216HW,2013-08-26 19:39:00,
2013-08-26 15:40:00,85.0,66.0,30.09,ENE,68,1.8,2.2,53,0.00,,,0.00,WUHU216HW,2013-08-26 19:40:00,
2013-08-26 15:41:00,84.6,65.6,30.09,ENE,68,1.7,1.8,53,0.00,,,0.00,WUHU216HW,2013-08-26 19:41:00,
2013-08-26 15:42:00,84.2,65.3,30.09,NE,45,1.8,1.8,53,0.00,,,0.00,WUHU216HW,2013-08-26 19:42:00,
2013-08-26 15:45:00,83.9,64.9,30.09,NNE,26,1.5,1.8,53,0.00,,,0.00,WUHU216HW,2013-08-26 19:45:00,
2013-08-26 15:46:00,83.7,64.7,30.09,North,3,0.8,1.8,53,0.00,,,0.00,WUHU216HW,2013-08-26 19:46:00,
2013-08-26 15:47:00,83.5,65.1,30.09,ENE,68,1.8,1.8,54,0.00,,,0.00,WUHU216HW,2013-08-26 19:47:00,
2013-08-26 15:48:00,83.2,64.7,30.09,ENE,68,2.0,2.9,54,0.00,,,0.00,WUHU216HW,2013-08-26 19:48:00,
2013-08-26 15:50:00,82.8,64.9,30.09,NE,45,0.4,2.9,55,0.00,,,0.00,WUHU216HW,2013-08-26 19:50:00,
2013-08-26 15:52:00,82.8,65.4,30.08,East,96,0.8,2.9,56,0.00,,,0.00,WUHU216HW,2013-08-26 19:52:00,
2013-08-26 15:54:00,83.0,65.6,30.08,ESE,105,1.9,2.9,56,0.00,,,0.00,WUHU216HW,2013-08-26 19:54:00,
2013-08-26 15:56:00,83.2,65.8,30.08,East,90,1.6,2.9,56,0.00,,,0.00,WUHU216HW,2013-08-26 19:56:00,
2013-08-26 15:57:00,83.0,65.1,30.08,ENE,73,1.5,2.5,55,0.00,,,0.00,WUHU216HW,2013-08-26 19:57:00,
2013-08-26 15:59:00,82.8,65.4,30.08,SE,135,0.4,2.5,56,0.00,,,0.00,WUHU216HW,2013-08-26 19:59:00,
2013-08-26 16:00:00,82.8,65.4,30.08,SSW,203,1.1,2.5,56,0.00,,,0.00,WUHU216HW,2013-08-26 20:00:00,
2013-08-26 16:01:00,83.0,66.2,30.08,SSW,203,0.8,2.5,57,0.00,,,0.00,WUHU216HW,2013-08-26 20:01:00,
2013-08-26 16:02:00,83.2,66.3,30.08,SSW,203,0.4,2.5,57,0.00,,,0.00,WUHU216HW,2013-08-26 20:02:00,
2013-08-26 16:03:00,83.5,67.1,30.08,SSE,158,0.9,1.8,58,0.00,,,0.00,WUHU216HW,2013-08-26 20:03:00,
2013-08-26 16:06:00,84.2,68.4,30.07,SW,225,1.1,1.8,59,0.00,,,0.00,WUHU216HW,2013-08-26 20:06:00,
2013-08-26 16:07:00,84.4,68.6,30.07,SW,234,0.9,1.1,59,0.00,,,0.00,WUHU216HW,2013-08-26 20:07:00,
2013-08-26 16:08:00,84.8,69.0,30.07,SW,225,4.0,4.0,59,0.00,,,0.00,WUHU216HW,2013-08-26 20:08:00,
2013-08-26 16:11:00,85.5,68.5,30.07,North,0,1.1,4.0,57,0.00,,,0.00,WUHU216HW,2013-08-26 20:11:00,
2013-08-26 16:12:00,85.7,68.7,30.07,North,0,0.7,4.0,57,0.00,,,0.00,WUHU216HW,2013-08-26 20:12:00,
2013-08-26 16:13:00,85.9,68.3,30.07,NW,315,1.1,4.0,56,0.00,,,0.00,WUHU216HW,2013-08-26 20:13:00,
2013-08-26 16:14:00,86.0,68.5,30.07,NNW,338,0.9,4.0,56,0.00,,,0.00,WUHU216HW,2013-08-26 20:14:00,
2013-08-26 16:16:00,86.2,69.2,30.07,WSW,253,1.5,4.0,57,0.00,,,0.00,WUHU216HW,2013-08-26 20:16:00,
2013-08-26 16:17:00,86.4,69.3,30.07,WSW,248,2.0,4.0,57,0.00,,,0.00,WUHU216HW,2013-08-26 20:17:00,
2013-08-26 16:19:00,86.8,70.2,30.07,NW,315,1.3,2.0,58,0.00,,,0.00,WUHU216HW,2013-08-26 20:19:00,
2013-08-26 16:20:00,86.8,70.2,30.07,SW,225,1.8,2.0,58,0.00,,,0.00,WUHU216HW,2013-08-26 20:20:00,
2013-08-26 16:23:00,86.8,70.7,30.07,WSW,248,2.7,2.7,59,0.00,,,0.00,WUHU216HW,2013-08-26 20:23:00,
2013-08-26 16:24:00,86.9,70.4,30.07,WSW,256,2.2,2.7,58,0.00,,,0.00,WUHU216HW,2013-08-26 20:24:00,
2013-08-26 16:25:00,87.1,70.0,30.07,WSW,243,1.1,2.7,57,0.00,,,0.00,WUHU216HW,2013-08-26 20:25:00,
2013-08-26 16:28:00,87.3,67.1,30.07,NE,45,2.5,2.7,51,0.00,,,0.00,WUHU216HW,2013-08-26 20:28:00,
2013-08-26 16:29:00,87.1,65.7,30.07,NE,45,4.0,4.0,49,0.00,,,0.00,WUHU216HW,2013-08-26 20:29:00,
2013-08-26 16:30:00,86.8,64.7,30.07,NE,54,3.3,4.0,48,0.00,,,0.00,WUHU216HW,2013-08-26 20:30:00,
2013-08-26 16:33:00,85.7,66.1,30.07,NNE,26,3.5,4.0,52,0.00,,,0.00,WUHU216HW,2013-08-26 20:33:00,
2013-08-26 16:35:00,85.3,65.7,30.07,North,0,2.8,4.0,52,0.00,,,0.00,WUHU216HW,2013-08-26 20:35:00,
2013-08-26 16:40:00,84.1,65.1,30.07,ENE,68,4.0,4.0,53,0.00,,,0.00,WUHU216HW,2013-08-26 20:40:00,
2013-08-26 16:41:00,83.9,64.5,30.07,ENE,61,2.9,4.0,52,0.00,,,0.00,WUHU216HW,2013-08-26 20:41:00,
2013-08-26 16:42:00,83.5,64.5,30.07,NNE,23,1.8,4.0,53,0.00,,,0.00,WUHU216HW,2013-08-26 20:42:00,
2013-08-26 16:46:00,82.6,64.7,30.07,North,0,1.3,4.0,55,0.00,,,0.00,WUHU216HW,2013-08-26 20:46:00,
2013-08-26 16:47:00,82.4,64.5,30.07,North,9,1.1,4.0,55,0.00,,,0.00,WUHU216HW,2013-08-26 20:47:00,
2013-08-26 16:48:00,82.3,64.4,30.07,NE,45,1.1,4.0,55,0.00,,,0.00,WUHU216HW,2013-08-26 20:48:00,
2013-08-26 16:50:00,81.9,64.5,30.06,North,0,0.8,2.2,56,0.00,,,0.00,WUHU216HW,2013-08-26 20:50:00,
2013-08-26 16:51:00,81.9,64.5,30.06,North,0,0.4,2.2,56,0.00,,,0.00,WUHU216HW,2013-08-26 20:51:00,
2013-08-26 16:52:00,81.7,64.5,30.06,NNE,23,0.0,2.2,56,0.00,,,0.00,WUHU216HW,2013-08-26 20:52:00,
2013-08-26 16:53:00,81.9,65.1,30.06,NNW,338,0.0,2.2,57,0.00,,,0.00,WUHU216HW,2013-08-26 20:53:00,
2013-08-26 16:54:00,81.9,65.6,30.06,NNW,338,0.0,1.3,58,0.00,,,0.00,WUHU216HW,2013-08-26 20:54:00,
2013-08-26 16:55:00,82.1,65.8,30.06,NNW,338,0.0,1.3,58,0.00,,,0.00,WUHU216HW,2013-08-26 20:55:00,
2013-08-26 16:57:00,82.3,66.4,30.06,SSW,203,1.1,1.1,59,0.00,,,0.00,WUHU216HW,2013-08-26 20:57:00,
2013-08-26 16:58:00,82.4,67.1,30.06,SSW,203,1.1,1.1,60,0.00,,,0.00,WUHU216HW,2013-08-26 20:58:00,
2013-08-26 16:59:00,82.4,67.1,30.06,SW,214,0.8,1.1,60,0.00,,,0.00,WUHU216HW,2013-08-26 20:59:00,
2013-08-26 17:00:00,82.4,67.1,30.06,SW,218,0.6,1.1,60,0.00,,,0.00,WUHU216HW,2013-08-26 21:00:00,
2013-08-26 17:02:00,82.6,67.8,30.06,WSW,248,0.4,1.1,61,0.00,,,0.00,WUHU216HW,2013-08-26 21:02:00,
2013-08-26 17:05:00,83.0,68.1,30.06,SW,225,0.4,1.1,61,0.00,,,0.00,WUHU216HW,2013-08-26 21:05:00,
2013-08-26 17:06:00,83.0,68.6,30.05,East,90,0.4,1.1,62,0.00,,,0.00,WUHU216HW,2013-08-26 21:06:00,
2013-08-26 17:07:00,83.2,68.3,30.05,ESE,110,0.3,1.1,61,0.00,,,0.00,WUHU216HW,2013-08-26 21:07:00,
2013-08-26 17:08:00,83.2,68.8,30.05,SW,225,0.9,0.9,62,0.00,,,0.00,WUHU216HW,2013-08-26 21:08:00,
2013-08-26 17:11:00,83.3,68.9,30.05,NE,45,0.9,0.9,62,0.00,,,0.00,WUHU216HW,2013-08-26 21:11:00,
2013-08-26 17:13:00,83.3,67.0,30.05,North,0,1.4,2.0,58,0.00,,,0.00,WUHU216HW,2013-08-26 21:13:00,
2013-08-26 17:17:00,83.3,67.0,30.05,SSE,158,1.8,2.0,58,0.00,,,0.00,WUHU216HW,2013-08-26 21:17:00,
2013-08-26 17:18:00,83.5,68.2,30.05,SSE,166,1.5,2.0,60,0.00,,,0.00,WUHU216HW,2013-08-26 21:18:00,
2013-08-26 17:22:00,83.5,68.2,30.05,ESE,113,1.3,1.8,60,0.00,,,0.00,WUHU216HW,2013-08-26 21:22:00,
2013-08-26 17:23:00,83.7,68.4,30.05,ESE,113,1.3,1.8,60,0.00,,,0.00,WUHU216HW,2013-08-26 21:23:00,
2013-08-26 17:24:00,83.7,68.4,30.05,WSW,248,1.3,1.8,60,0.00,,,0.00,WUHU216HW,2013-08-26 21:24:00,
2013-08-26 17:27:00,83.7,68.4,30.05,West,270,0.4,1.3,60,0.00,,,0.00,WUHU216HW,2013-08-26 21:27:00,
2013-08-26 17:28:00,83.7,68.4,30.05,WNW,293,0.0,1.3,60,0.00,,,0.00,WUHU216HW,2013-08-26 21:28:00,
2013-08-26 17:29:00,83.9,68.6,30.05,West,270,0.9,1.3,60,0.00,,,0.00,WUHU216HW,2013-08-26 21:29:00,
2013-08-26 17:30:00,83.9,68.6,30.05,West,270,0.9,1.3,60,0.00,,,0.00,WUHU216HW,2013-08-26 21:30:00,
2013-08-26 17:32:00,83.9,68.6,30.05,WSW,248,1.6,1.6,60,0.00,,,0.00,WUHU216HW,2013-08-26 21:32:00,
2013-08-26 17:33:00,83.9,69.0,30.05,WSW,241,1.1,1.6,61,0.00,,,0.00,WUHU216HW,2013-08-26 21:33:00,
2013-08-26 17:34:00,83.9,69.0,30.05,SW,225,0.7,1.6,61,0.00,,,0.00,WUHU216HW,2013-08-26 21:34:00,
2013-08-26 17:35:00,83.9,69.0,30.05,WSW,248,1.8,1.8,61,0.00,,,0.00,WUHU216HW,2013-08-26 21:35:00,
2013-08-26 17:39:00,83.5,68.2,30.05,SW,225,0.0,1.8,60,0.00,,,0.00,WUHU216HW,2013-08-26 21:39:00,
2013-08-26 17:40:00,83.5,68.2,30.05,SW,225,0.0,1.8,60,0.00,,,0.00,WUHU216HW,2013-08-26 21:40:00,
2013-08-26 17:41:00,83.3,67.5,30.05,WSW,248,0.9,1.8,59,0.00,,,0.00,WUHU216HW,2013-08-26 21:41:00,
2013-08-26 17:44:00,83.3,67.0,30.04,West,267,1.7,2.9,58,0.00,,,0.00,WUHU216HW,2013-08-26 21:44:00,
2013-08-26 17:45:00,83.2,67.3,30.04,West,270,1.1,2.9,59,0.00,,,0.00,WUHU216HW,2013-08-26 21:45:00,
2013-08-26 17:46:00,83.2,67.3,30.04,WSW,250,1.0,2.9,59,0.00,,,0.00,WUHU216HW,2013-08-26 21:46:00,
2013-08-26 17:49:00,82.8,67.0,30.04,SW,231,0.8,2.9,59,0.00,,,0.00,WUHU216HW,2013-08-26 21:49:00,
2013-08-26 17:50:00,82.8,67.5,30.04,WSW,248,2.0,2.9,60,0.00,,,0.00,WUHU216HW,2013-08-26 21:50:00,
2013-08-26 17:52:00,82.4,67.1,30.05,NW,309,0.8,2.9,60,0.00,,,0.00,WUHU216HW,2013-08-26 21:52:00,
2013-08-26 17:55:00,82.1,66.8,30.04,WSW,248,2.0,2.0,60,0.00,,,0.00,WUHU216HW,2013-08-26 21:55:00,
2013-08-26 17:56:00,82.1,66.8,30.04,WSW,248,2.0,2.0,60,0.00,,,0.00,WUHU216HW,2013-08-26 21:56:00,
2013-08-26 17:57:00,81.9,67.2,30.04,WSW,255,1.3,2.0,61,0.00,,,0.00,WUHU216HW,2013-08-26 21:57:00,
2013-08-26 17:59:00,81.7,67.0,30.04,WSW,248,1.3,2.0,61,0.00,,,0.00,WUHU216HW,2013-08-26 21:59:00,
2013-08-26 18:01:00,81.5,67.2,30.04,WSW,248,1.1,2.0,62,0.00,,,0.00,WUHU216HW,2013-08-26 22:01:00,
2013-08-26 18:02:00,81.5,66.8,30.04,WSW,256,0.9,2.0,61,0.00,,,0.00,WUHU216HW,2013-08-26 22:02:00,
2013-08-26 18:04:00,81.4,66.6,30.04,West,264,0.8,2.0,61,0.00,,,0.00,WUHU216HW,2013-08-26 22:04:00,
2013-08-26 18:07:00,81.4,67.1,30.04,WSW,248,1.6,1.6,62,0.00,,,0.00,WUHU216HW,2013-08-26 22:07:00,
2013-08-26 18:09:00,81.2,66.9,30.04,WSW,248,1.8,1.8,62,0.00,,,0.00,WUHU216HW,2013-08-26 22:09:00,
2013-08-26 18:10:00,81.4,67.1,30.04,SW,225,0.4,1.8,62,0.00,,,0.00,WUHU216HW,2013-08-26 22:10:00,
2013-08-26 18:13:00,81.2,66.9,30.04,SW,225,1.1,1.8,62,0.00,,,0.00,WUHU216HW,2013-08-26 22:13:00,
2013-08-26 18:15:00,81.4,67.1,30.04,SW,229,1.0,1.8,62,0.00,,,0.00,WUHU216HW,2013-08-26 22:15:00,
2013-08-26 18:16:00,81.2,66.9,30.04,WSW,248,0.9,1.8,62,0.00,,,0.00,WUHU216HW,2013-08-26 22:16:00,
2013-08-26 18:18:00,81.0,66.8,30.04,WSW,248,0.7,1.6,62,0.00,,,0.00,WUHU216HW,2013-08-26 22:18:00,
2013-08-26 18:20:00,81.0,66.3,30.04,North,0,1.6,1.6,61,0.00,,,0.00,WUHU216HW,2013-08-26 22:20:00,
2013-08-26 18:23:00,81.0,65.9,30.04,North,0,0.9,1.6,60,0.00,,,0.00,WUHU216HW,2013-08-26 22:23:00,
2013-08-26 18:25:00,81.0,65.9,30.04,NE,53,1.0,1.6,60,0.00,,,0.00,WUHU216HW,2013-08-26 22:25:00,
2013-08-26 18:28:00,81.0,65.4,30.04,NNE,23,0.9,1.6,59,0.00,,,0.00,WUHU216HW,2013-08-26 22:28:00,
2013-08-26 18:30:00,81.0,65.4,30.04,East,90,2.0,2.0,59,0.00,,,0.00,WUHU216HW,2013-08-26 22:30:00,
2013-08-26 18:31:00,81.0,65.4,30.04,East,90,1.2,2.0,59,0.00,,,0.00,WUHU216HW,2013-08-26 22:31:00,
2013-08-26 18:33:00,81.0,65.9,30.04,ESE,121,0.9,2.0,60,0.00,,,0.00,WUHU216HW,2013-08-26 22:33:00,
2013-08-26 18:34:00,81.0,65.9,30.04,ESE,113,1.1,2.0,60,0.00,,,0.00,WUHU216HW,2013-08-26 22:34:00,
2013-08-26 18:35:00,81.0,65.9,30.04,ESE,113,0.9,2.0,60,0.00,,,0.00,WUHU216HW,2013-08-26 22:35:00,
2013-08-26 18:37:00,81.0,65.9,30.04,East,90,0.9,2.0,60,0.00,,,0.00,WUHU216HW,2013-08-26 22:37:00,
2013-08-26 18:39:00,81.0,65.9,30.04,NE,45,0.9,2.0,60,0.00,,,0.00,WUHU216HW,2013-08-26 22:39:00,
2013-08-26 18:40:00,81.0,65.9,30.04,ESE,113,1.1,1.1,60,0.00,,,0.00,WUHU216HW,2013-08-26 22:40:00,
2013-08-26 18:42:00,80.8,65.7,30.04,East,96,1.5,1.8,60,0.00,,,0.00,WUHU216HW,2013-08-26 22:42:00,
2013-08-26 18:44:00,80.6,65.0,30.04,NE,45,2.5,2.5,59,0.00,,,0.00,WUHU216HW,2013-08-26 22:44:00,
2013-08-26 18:45:00,80.6,65.0,30.04,NE,45,1.9,2.5,59,0.00,,,0.00,WUHU216HW,2013-08-26 22:45:00,
2013-08-26 18:46:00,80.6,65.0,30.04,NE,48,0.8,2.5,59,0.00,,,0.00,WUHU216HW,2013-08-26 22:46:00,
2013-08-26 18:47:00,80.6,65.0,30.04,ENE,68,0.2,2.5,59,0.00,,,0.00,WUHU216HW,2013-08-26 22:47:00,
2013-08-26 18:48:00,80.5,64.8,30.04,ENE,68,0.0,2.5,59,0.00,,,0.00,WUHU216HW,2013-08-26 22:48:00,
2013-08-26 18:49:00,80.5,65.3,30.04,NNE,23,0.2,2.5,60,0.00,,,0.00,WUHU216HW,2013-08-26 22:49:00,
2013-08-26 18:51:00,80.5,65.3,30.04,NNE,23,0.2,2.5,60,0.00,,,0.00,WUHU216HW,2013-08-26 22:51:00,
2013-08-26 18:52:00,80.5,65.3,30.03,NNE,23,0.0,2.5,60,0.00,,,0.00,WUHU216HW,2013-08-26 22:52:00,
2013-08-26 18:53:00,80.5,65.3,30.03,NNE,23,0.0,2.5,60,0.00,,,0.00,WUHU216HW,2013-08-26 22:53:00,
2013-08-26 18:55:00,80.3,65.2,30.03,NNE,23,0.0,0.2,60,0.00,,,0.00,WUHU216HW,2013-08-26 22:55:00,
2013-08-26 18:56:00,80.3,65.2,30.03,NNE,23,0.0,0.2,60,0.00,,,0.00,WUHU216HW,2013-08-26 22:56:00,
2013-08-26 18:59:00,80.1,65.5,30.03,NNW,338,0.0,0.0,61,0.00,,,0.00,WUHU216HW,2013-08-26 22:59:00,
2013-08-26 19:00:00,80.1,65.5,30.03,WSW,248,0.0,0.0,61,0.00,,,0.00,WUHU216HW,2013-08-26 23:00:00,
2013-08-26 19:01:00,79.9,65.4,30.03,WSW,248,0.0,0.0,61,0.00,,,0.00,WUHU216HW,2013-08-26 23:01:00,
2013-08-26 19:02:00,79.7,65.2,30.03,WSW,248,0.0,0.0,61,0.00,,,0.00,WUHU216HW,2013-08-26 23:02:00,
2013-08-26 19:04:00,79.6,65.4,30.03,WSW,248,0.4,0.4,62,0.00,,,0.00,WUHU216HW,2013-08-26 23:04:00,
2013-08-26 19:05:00,79.4,65.3,30.03,WSW,248,0.4,0.4,62,0.00,,,0.00,WUHU216HW,2013-08-26 23:05:00,
2013-08-26 19:06:00,79.2,65.1,30.03,WSW,248,0.0,0.4,62,0.00,,,0.00,WUHU216HW,2013-08-26 23:06:00,
2013-08-26 19:07:00,79.2,65.5,30.03,WSW,248,0.0,0.4,63,0.00,,,0.00,WUHU216HW,2013-08-26 23:07:00,
2013-08-26 19:09:00,78.8,65.2,30.03,WSW,248,0.6,0.7,63,0.00,,,0.00,WUHU216HW,2013-08-26 23:09:00,
2013-08-26 19:10:00,78.7,65.0,30.03,WSW,248,0.7,0.7,63,0.00,,,0.00,WUHU216HW,2013-08-26 23:10:00,
2013-08-26 19:12:00,78.5,65.3,30.03,WSW,248,0.9,0.9,64,0.00,,,0.00,WUHU216HW,2013-08-26 23:12:00,
2013-08-26 19:13:00,78.5,65.3,30.03,WSW,248,0.8,0.9,64,0.00,,,0.00,WUHU216HW,2013-08-26 23:13:00,
2013-08-26 19:15:00,78.1,65.0,30.03,WSW,248,0.9,1.1,64,0.00,,,0.00,WUHU216HW,2013-08-26 23:15:00,
2013-08-26 19:16:00,78.1,65.0,30.02,WSW,248,1.1,1.1,64,0.00,,,0.00,WUHU216HW,2013-08-26 23:16:00,
2013-08-26 19:17:00,77.9,64.8,30.03,WSW,248,0.9,1.1,64,0.00,,,0.00,WUHU216HW,2013-08-26 23:17:00,
2013-08-26 19:18:00,77.9,64.8,30.02,WSW,248,0.6,1.1,64,0.00,,,0.00,WUHU216HW,2013-08-26 23:18:00,
2013-08-26 19:20:00,77.8,64.6,30.02,WSW,248,0.4,1.1,64,0.00,,,0.00,WUHU216HW,2013-08-26 23:20:00,
2013-08-26 19:21:00,77.8,65.1,30.02,WSW,248,0.0,1.1,65,0.00,,,0.00,WUHU216HW,2013-08-26 23:21:00,
2013-08-26 19:22:00,77.6,64.9,30.03,WSW,248,0.0,1.1,65,0.00,,,0.00,WUHU216HW,2013-08-26 23:22:00,
2013-08-26 19:23:00,77.6,64.9,30.03,WSW,248,0.0,1.1,65,0.00,,,0.00,WUHU216HW,2013-08-26 23:23:00,
2013-08-26 19:25:00,77.4,65.2,30.02,WSW,248,0.0,1.1,66,0.00,,,0.00,WUHU216HW,2013-08-26 23:25:00,
2013-08-26 19:26:00,77.4,65.2,30.03,WSW,248,0.0,0.7,66,0.00,,,0.00,WUHU216HW,2013-08-26 23:26:00,
2013-08-26 19:28:00,77.2,65.0,30.03,WSW,248,1.0,1.1,66,0.00,,,0.00,WUHU216HW,2013-08-26 23:28:00,
2013-08-26 19:29:00,77.2,65.0,30.03,WSW,248,1.0,1.1,66,0.00,,,0.00,WUHU216HW,2013-08-26 23:29:00,
2013-08-26 19:30:00,77.2,65.0,30.03,WSW,248,1.0,1.1,66,0.00,,,0.00,WUHU216HW,2013-08-26 23:30:00,
2013-08-26 19:31:00,77.0,64.8,30.02,WSW,248,1.1,1.1,66,0.00,,,0.00,WUHU216HW,2013-08-26 23:31:00,
2013-08-26 19:32:00,77.0,64.8,30.02,WSW,248,1.1,1.1,66,0.00,,,0.00,WUHU216HW,2013-08-26 23:32:00,
2013-08-26 19:33:00,77.0,65.3,30.02,WSW,248,0.9,1.1,67,0.00,,,0.00,WUHU216HW,2013-08-26 23:33:00,
2013-08-26 19:34:00,76.9,65.1,30.02,WSW,248,0.7,1.1,67,0.00,,,0.00,WUHU216HW,2013-08-26 23:34:00,
2013-08-26 19:36:00,76.9,65.1,30.02,WSW,248,0.4,1.1,67,0.00,,,0.00,WUHU216HW,2013-08-26 23:36:00,
2013-08-26 19:37:00,76.7,64.9,30.03,WSW,248,0.4,1.1,67,0.00,,,0.00,WUHU216HW,2013-08-26 23:37:00,
2013-08-26 19:40:00,76.7,65.3,30.02,WSW,248,0.8,1.1,68,0.00,,,0.00,WUHU216HW,2013-08-26 23:40:00,
2013-08-26 19:41:00,76.5,65.2,30.03,WSW,248,0.6,1.1,68,0.00,,,0.00,WUHU216HW,2013-08-26 23:41:00,
2013-08-26 19:42:00,76.5,65.2,30.02,WSW,248,0.4,0.9,68,0.00,,,0.00,WUHU216HW,2013-08-26 23:42:00,
2013-08-26 19:43:00,76.5,65.2,30.02,WSW,248,0.4,0.9,68,0.00,,,0.00,WUHU216HW,2013-08-26 23:43:00,
2013-08-26 19:45:00,76.1,65.3,30.02,WSW,248,0.2,0.9,69,0.00,,,0.00,WUHU216HW,2013-08-26 23:45:00,
2013-08-26 19:48:00,76.0,65.5,30.02,WSW,248,0.0,0.9,70,0.00,,,0.00,WUHU216HW,2013-08-26 23:48:00,
2013-08-26 19:49:00,76.0,65.5,30.02,WSW,248,0.0,0.7,70,0.00,,,0.00,WUHU216HW,2013-08-26 23:49:00,
2013-08-26 19:51:00,75.8,65.3,30.02,WSW,248,0.0,0.7,70,0.00,,,0.00,WUHU216HW,2013-08-26 23:51:00,
2013-08-26 19:53:00,75.6,65.5,30.02,WSW,248,0.0,0.2,71,0.00,,,0.00,WUHU216HW,2013-08-26 23:53:00,
2013-08-26 19:54:00,75.6,65.5,30.02,WSW,248,0.0,0.2,71,0.00,,,0.00,WUHU216HW,2013-08-26 23:54:00,
2013-08-26 19:56:00,75.2,65.2,30.02,WSW,248,0.0,0.0,71,0.00,,,0.00,WUHU216HW,2013-08-26 23:56:00,
2013-08-26 19:57:00,75.2,65.2,30.02,WSW,248,0.0,0.0,71,0.00,,,0.00,WUHU216HW,2013-08-26 23:57:00,
2013-08-26 19:59:00,75.1,65.4,30.02,WSW,248,0.0,0.0,72,0.00,,,0.00,WUHU216HW,2013-08-26 23:59:00,
2013-08-26 20:00:00,75.1,65.4,30.02,WSW,248,0.0,0.0,72,0.00,,,0.00,WUHU216HW,2013-08-27 00:00:00,
2013-08-26 20:01:00,74.9,65.3,30.02,WSW,248,0.0,0.0,72,0.00,,,0.00,WUHU216HW,2013-08-27 00:01:00,
2013-08-26 20:02:00,74.9,65.3,30.02,WSW,248,0.0,0.0,72,0.00,,,0.00,WUHU216HW,2013-08-27 00:02:00,
2013-08-26 20:05:00,74.5,64.9,30.02,WSW,248,0.0,0.0,72,0.00,,,0.00,WUHU216HW,2013-08-27 00:05:00,
2013-08-26 20:06:00,74.5,65.4,30.02,WSW,248,0.0,0.0,73,0.00,,,0.00,WUHU216HW,2013-08-27 00:06:00,
2013-08-26 20:07:00,74.3,65.2,30.02,WSW,248,0.0,0.0,73,0.00,,,0.00,WUHU216HW,2013-08-27 00:07:00,
2013-08-26 20:11:00,74.0,64.8,30.02,WSW,248,0.0,0.0,73,0.00,,,0.00,WUHU216HW,2013-08-27 00:11:00,
2013-08-26 20:12:00,74.0,64.8,30.02,WSW,248,0.0,0.0,73,0.00,,,0.00,WUHU216HW,2013-08-27 00:12:00,
2013-08-26 20:13:00,73.8,65.1,30.02,WSW,248,0.0,0.0,74,0.00,,,0.00,WUHU216HW,2013-08-27 00:13:00,
2013-08-26 20:17:00,73.6,65.3,30.02,WSW,248,0.0,0.0,75,0.00,,,0.00,WUHU216HW,2013-08-27 00:17:00,
2013-08-26 20:18:00,73.6,65.3,30.02,WSW,248,0.0,0.0,75,0.00,,,0.00,WUHU216HW,2013-08-27 00:18:00,
2013-08-26 20:19:00,73.6,65.3,30.02,WSW,248,0.0,0.0,75,0.00,,,0.00,WUHU216HW,2013-08-27 00:19:00,
2013-08-26 20:22:00,73.4,65.1,30.02,WSW,248,0.0,0.0,75,0.00,,,0.00,WUHU216HW,2013-08-27 00:22:00,
2013-08-26 20:24:00,73.3,64.9,30.02,WSW,248,0.0,0.0,75,0.00,,,0.00,WUHU216HW,2013-08-27 00:24:00,
2013-08-26 20:25:00,73.1,65.1,30.02,WSW,248,0.0,0.0,76,0.00,,,0.00,WUHU216HW,2013-08-27 00:25:00,
2013-08-26 20:27:00,73.1,65.1,30.02,WSW,248,0.0,0.0,76,0.00,,,0.00,WUHU216HW,2013-08-27 00:27:00,
2013-08-26 20:30:00,72.9,64.9,30.02,WSW,248,0.0,0.0,76,0.00,,,0.00,WUHU216HW,2013-08-27 00:30:00,
2013-08-26 20:31:00,72.7,64.7,30.02,WSW,248,0.0,0.0,76,0.00,,,0.00,WUHU216HW,2013-08-27 00:31:00,
2013-08-26 20:33:00,72.5,64.9,30.02,WSW,248,0.0,0.0,77,0.00,,,0.00,WUHU216HW,2013-08-27 00:33:00,
2013-08-26 20:35:00,72.4,64.7,30.02,WSW,248,0.0,0.0,77,0.00,,,0.00,WUHU216HW,2013-08-27 00:35:00,
2013-08-26 20:36:00,72.2,64.2,30.02,WSW,248,0.0,0.0,76,0.00,,,0.00,WUHU216HW,2013-08-27 00:36:00,
2013-08-26 20:39:00,72.0,64.4,30.02,WSW,248,0.0,0.0,77,0.00,,,0.00,WUHU216HW,2013-08-27 00:39:00,
2013-08-26 20:41:00,71.8,64.2,30.02,WSW,248,0.0,0.0,77,0.00,,,0.00,WUHU216HW,2013-08-27 00:41:00,
2013-08-26 20:42:00,71.8,64.6,30.02,WSW,248,0.0,0.0,78,0.00,,,0.00,WUHU216HW,2013-08-27 00:42:00,
2013-08-26 20:43:00,71.8,64.6,30.02,WSW,248,0.0,0.0,78,0.00,,,0.00,WUHU216HW,2013-08-27 00:43:00,
2013-08-26 20:44:00,71.6,64.5,30.02,WSW,248,0.0,0.0,78,0.00,,,0.00,WUHU216HW,2013-08-27 00:44:00,
2013-08-26 20:46:00,71.5,64.3,30.02,WSW,248,0.0,0.0,78,0.00,,,0.00,WUHU216HW,2013-08-27 00:46:00,
2013-08-26 20:47:00,71.5,64.3,30.02,WSW,248,0.0,0.0,78,0.00,,,0.00,WUHU216HW,2013-08-27 00:47:00,
2013-08-26 20:49:00,71.3,64.5,30.02,WSW,248,0.0,0.0,79,0.00,,,0.00,WUHU216HW,2013-08-27 00:49:00,
2013-08-26 20:52:00,70.9,64.1,30.02,WSW,248,0.0,0.0,79,0.00,,,0.00,WUHU216HW,2013-08-27 00:52:00,
2013-08-26 20:54:00,70.9,64.1,30.02,WSW,248,0.0,0.0,79,0.00,,,0.00,WUHU216HW,2013-08-27 00:54:00,
2013-08-26 20:55:00,70.9,64.4,30.02,WSW,248,0.0,0.0,80,0.00,,,0.00,WUHU216HW,2013-08-27 00:55:00,
2013-08-26 20:56:00,70.7,64.3,30.02,WSW,248,0.0,0.0,80,0.00,,,0.00,WUHU216HW,2013-08-27 00:56:00,
2013-08-26 20:58:00,70.7,64.3,30.02,WSW,248,0.0,0.0,80,0.00,,,0.00,WUHU216HW,2013-08-27 00:58:00,
2013-08-26 20:59:00,70.7,64.3,30.02,WSW,248,0.0,0.0,80,0.00,,,0.00,WUHU216HW,2013-08-27 00:59:00,
2013-08-26 21:01:00,70.6,64.1,30.02,WSW,248,0.0,0.0,80,0.00,,,0.00,WUHU216HW,2013-08-27 01:01:00,
2013-08-26 21:03:00,70.4,64.3,30.02,WSW,248,0.0,0.0,81,0.00,,,0.00,WUHU216HW,2013-08-27 01:03:00,
2013-08-26 21:05:00,70.4,64.3,30.02,WSW,248,0.0,0.0,81,0.00,,,0.00,WUHU216HW,2013-08-27 01:05:00,
2013-08-26 21:06:00,70.2,64.1,30.02,WSW,248,0.0,0.0,81,0.00,,,0.00,WUHU216HW,2013-08-27 01:06:00,
2013-08-26 21:09:00,70.0,63.9,30.02,WSW,248,0.0,0.0,81,0.00,,,0.00,WUHU216HW,2013-08-27 01:09:00,
2013-08-26 21:10:00,70.0,63.9,30.02,WSW,248,0.0,0.0,81,0.00,,,0.00,WUHU216HW,2013-08-27 01:10:00,
2013-08-26 21:11:00,70.0,63.9,30.02,WSW,248,0.0,0.0,81,0.00,,,0.00,WUHU216HW,2013-08-27 01:11:00,
2013-08-26 21:12:00,69.8,63.7,30.02,WSW,248,0.0,0.0,81,0.00,,,0.00,WUHU216HW,2013-08-27 01:12:00,
2013-08-26 21:14:00,69.8,63.7,30.02,WSW,248,0.0,0.0,81,0.00,,,0.00,WUHU216HW,2013-08-27 01:14:00,
2013-08-26 21:15:00,69.7,63.9,30.02,WSW,248,0.0,0.0,82,0.00,,,0.00,WUHU216HW,2013-08-27 01:15:00,
2013-08-26 21:16:00,69.7,63.9,30.02,WSW,248,0.0,0.0,82,0.00,,,0.00,WUHU216HW,2013-08-27 01:16:00,
2013-08-26 21:18:00,69.7,63.9,30.02,WSW,248,0.0,0.0,82,0.00,,,0.00,WUHU216HW,2013-08-27 01:18:00,
2013-08-26 21:20:00,69.5,63.7,30.02,WSW,248,0.0,0.0,82,0.00,,,0.00,WUHU216HW,2013-08-27 01:20:00,
2013-08-26 21:21:00,69.5,63.7,30.02,WSW,248,0.0,0.0,82,0.00,,,0.00,WUHU216HW,2013-08-27 01:21:00,
2013-08-26 21:22:00,69.3,63.5,30.02,WSW,248,0.0,0.0,82,0.00,,,0.00,WUHU216HW,2013-08-27 01:22:00,
2013-08-26 21:23:00,69.3,63.5,30.02,WSW,248,0.0,0.0,82,0.00,,,0.00,WUHU216HW,2013-08-27 01:23:00,
2013-08-26 21:25:00,69.3,63.5,30.02,WSW,248,0.0,0.0,82,0.00,,,0.00,WUHU216HW,2013-08-27 01:25:00,
2013-08-26 21:26:00,69.1,63.7,30.02,WSW,248,0.0,0.0,83,0.00,,,0.00,WUHU216HW,2013-08-27 01:26:00,
2013-08-26 21:27:00,69.1,63.7,30.02,WSW,248,0.0,0.0,83,0.00,,,0.00,WUHU216HW,2013-08-27 01:27:00,
2013-08-26 21:29:00,69.1,63.7,30.02,WSW,248,0.0,0.0,83,0.00,,,0.00,WUHU216HW,2013-08-27 01:29:00,
2013-08-26 21:30:00,69.1,63.7,30.02,WSW,248,0.0,0.0,83,0.00,,,0.00,WUHU216HW,2013-08-27 01:30:00,
2013-08-26 21:31:00,69.1,64.1,30.02,WSW,248,0.0,0.0,84,0.00,,,0.00,WUHU216HW,2013-08-27 01:31:00,
2013-08-26 21:33:00,68.9,63.9,30.02,WSW,248,0.0,0.0,84,0.00,,,0.00,WUHU216HW,2013-08-27 01:33:00,
2013-08-26 21:34:00,68.9,63.9,30.02,WSW,248,0.0,0.0,84,0.00,,,0.00,WUHU216HW,2013-08-27 01:34:00,
2013-08-26 21:35:00,68.9,63.9,30.02,WSW,248,0.0,0.0,84,0.00,,,0.00,WUHU216HW,2013-08-27 01:35:00,
2013-08-26 21:36:00,68.9,63.9,30.02,WSW,248,0.0,0.0,84,0.00,,,0.00,WUHU216HW,2013-08-27 01:36:00,
2013-08-26 21:38:00,68.8,63.7,30.02,WSW,248,0.0,0.0,84,0.00,,,0.00,WUHU216HW,2013-08-27 01:38:00,
2013-08-26 21:39:00,68.8,63.7,30.02,WSW,248,0.0,0.0,84,0.00,,,0.00,WUHU216HW,2013-08-27 01:39:00,
2013-08-26 21:40:00,68.8,63.7,30.02,WSW,248,0.0,0.0,84,0.00,,,0.00,WUHU216HW,2013-08-27 01:40:00,
2013-08-26 21:43:00,68.6,63.5,30.03,WSW,248,0.0,0.0,84,0.00,,,0.00,WUHU216HW,2013-08-27 01:43:00,
2013-08-26 21:45:00,68.6,63.5,30.02,WSW,248,0.0,0.0,84,0.00,,,0.00,WUHU216HW,2013-08-27 01:45:00,
2013-08-26 21:46:00,68.6,63.5,30.03,WSW,248,0.0,0.0,84,0.00,,,0.00,WUHU216HW,2013-08-27 01:46:00,
2013-08-26 21:49:00,68.2,63.2,30.02,WSW,248,0.0,0.0,84,0.00,,,0.00,WUHU216HW,2013-08-27 01:49:00,
2013-08-26 21:50:00,68.2,63.2,30.02,WSW,248,0.0,0.0,84,0.00,,,0.00,WUHU216HW,2013-08-27 01:50:00,
2013-08-26 21:51:00,68.2,63.6,30.03,WSW,248,0.0,0.0,85,0.00,,,0.00,WUHU216HW,2013-08-27 01:51:00,
2013-08-26 21:52:00,68.2,63.6,30.03,WSW,248,0.0,0.0,85,0.00,,,0.00,WUHU216HW,2013-08-27 01:52:00,
2013-08-26 21:55:00,68.2,63.6,30.02,WSW,248,0.0,0.0,85,0.00,,,0.00,WUHU216HW,2013-08-27 01:55:00,
2013-08-26 21:56:00,68.2,63.6,30.02,WSW,248,0.0,0.0,85,0.00,,,0.00,WUHU216HW,2013-08-27 01:56:00,
2013-08-26 21:57:00,68.2,63.6,30.02,WSW,248,0.0,0.0,85,0.00,,,0.00,WUHU216HW,2013-08-27 01:57:00,
2013-08-26 22:00:00,68.0,63.4,30.02,WSW,248,0.0,0.0,85,0.00,,,0.00,WUHU216HW,2013-08-27 02:00:00,
2013-08-26 22:01:00,68.0,63.4,30.02,WSW,248,0.0,0.0,85,0.00,,,0.00,WUHU216HW,2013-08-27 02:01:00,
2013-08-26 22:02:00,68.0,63.4,30.02,WSW,248,0.0,0.0,85,0.00,,,0.00,WUHU216HW,2013-08-27 02:02:00,
2013-08-26 22:04:00,67.9,63.2,30.02,WSW,248,0.0,0.0,85,0.00,,,0.00,WUHU216HW,2013-08-27 02:04:00,
2013-08-26 22:06:00,67.9,63.2,30.02,WSW,248,0.0,0.0,85,0.00,,,0.00,WUHU216HW,2013-08-27 02:06:00,
2013-08-26 22:07:00,67.9,63.2,30.02,WSW,248,0.0,0.0,85,0.00,,,0.00,WUHU216HW,2013-08-27 02:07:00,
2013-08-26 22:08:00,67.7,63.0,30.02,WSW,248,0.0,0.0,85,0.00,,,0.00,WUHU216HW,2013-08-27 02:08:00,
2013-08-26 22:10:00,67.7,63.4,30.02,WSW,248,0.0,0.0,86,0.00,,,0.00,WUHU216HW,2013-08-27 02:10:00,
2013-08-26 22:12:00,67.7,63.4,30.02,WSW,248,0.0,0.0,86,0.00,,,0.00,WUHU216HW,2013-08-27 02:12:00,
2013-08-26 22:13:00,67.5,63.2,30.02,WSW,248,0.0,0.0,86,0.00,,,0.00,WUHU216HW,2013-08-27 02:13:00,
2013-08-26 22:14:00,67.5,63.2,30.02,WSW,248,0.0,0.0,86,0.00,,,0.00,WUHU216HW,2013-08-27 02:14:00,
2013-08-26 22:15:00,67.3,63.0,30.02,WSW,248,0.0,0.0,86,0.00,,,0.00,WUHU216HW,2013-08-27 02:15:00,
2013-08-26 22:17:00,67.3,63.0,30.02,WSW,248,0.0,0.0,86,0.00,,,0.00,WUHU216HW,2013-08-27 02:17:00,
2013-08-26 22:18:00,67.3,63.0,30.02,WSW,248,0.0,0.0,86,0.00,,,0.00,WUHU216HW,2013-08-27 02:18:00,
2013-08-26 22:19:00,67.3,63.0,30.02,WSW,248,0.0,0.0,86,0.00,,,0.00,WUHU216HW,2013-08-27 02:19:00,
2013-08-26 22:20:00,67.1,62.8,30.02,WSW,248,0.0,0.0,86,0.00,,,0.00,WUHU216HW,2013-08-27 02:20:00,
2013-08-26 22:23:00,67.0,62.7,30.02,WSW,248,0.0,0.0,86,0.00,,,0.00,WUHU216HW,2013-08-27 02:23:00,
2013-08-26 22:25:00,67.0,62.7,30.02,WSW,248,0.0,0.0,86,0.00,,,0.00,WUHU216HW,2013-08-27 02:25:00,
2013-08-26 22:26:00,67.0,62.7,30.02,WSW,248,0.0,0.0,86,0.00,,,0.00,WUHU216HW,2013-08-27 02:26:00,
2013-08-26 22:28:00,66.8,62.5,30.02,WSW,248,0.0,0.0,86,0.00,,,0.00,WUHU216HW,2013-08-27 02:28:00,
2013-08-26 22:29:00,66.8,62.7,30.02,WSW,248,0.0,0.0,87,0.00,,,0.00,WUHU216HW,2013-08-27 02:29:00,
2013-08-26 22:30:00,66.8,62.7,30.02,WSW,248,0.0,0.0,87,0.00,,,0.00,WUHU216HW,2013-08-27 02:30:00,
2013-08-26 22:31:00,67.0,62.9,30.02,WSW,248,0.0,0.0,87,0.00,,,0.00,WUHU216HW,2013-08-27 02:31:00,
2013-08-26 22:34:00,66.8,62.7,30.03,WSW,248,0.0,0.0,87,0.00,,,0.00,WUHU216HW,2013-08-27 02:34:00,
2013-08-26 22:35:00,66.8,62.7,30.02,WSW,248,0.0,0.0,87,0.00,,,0.00,WUHU216HW,2013-08-27 02:35:00,
2013-08-26 22:36:00,66.6,62.6,30.03,WSW,248,0.0,0.0,87,0.00,,,0.00,WUHU216HW,2013-08-27 02:36:00,
2013-08-26 22:39:00,66.6,62.6,30.03,WSW,248,0.0,0.0,87,0.00,,,0.00,WUHU216HW,2013-08-27 02:39:00,
2013-08-26 22:40:00,66.6,62.6,30.03,WSW,248,0.0,0.0,87,0.00,,,0.00,WUHU216HW,2013-08-27 02:40:00,
2013-08-26 22:41:00,66.6,62.6,30.03,WSW,248,0.0,0.0,87,0.00,,,0.00,WUHU216HW,2013-08-27 02:41:00,
2013-08-26 22:42:00,66.6,62.6,30.03,WSW,248,0.0,0.0,87,0.00,,,0.00,WUHU216HW,2013-08-27 02:42:00,
2013-08-26 22:44:00,66.4,62.4,30.03,WSW,248,0.0,0.0,87,0.00,,,0.00,WUHU216HW,2013-08-27 02:44:00,
2013-08-26 22:46:00,66.4,62.4,30.03,WSW,248,0.0,0.0,87,0.00,,,0.00,WUHU216HW,2013-08-27 02:46:00,
2013-08-26 22:47:00,66.4,62.4,30.03,WSW,248,0.0,0.0,87,0.00,,,0.00,WUHU216HW,2013-08-27 02:47:00,
2013-08-26 22:48:00,66.4,62.4,30.03,WSW,248,0.0,0.0,87,0.00,,,0.00,WUHU216HW,2013-08-27 02:48:00,
2013-08-26 22:51:00,66.2,62.6,30.03,WSW,248,0.0,0.0,88,0.00,,,0.00,WUHU216HW,2013-08-27 02:51:00,
2013-08-26 22:52:00,66.2,62.6,30.03,WSW,248,0.0,0.0,88,0.00,,,0.00,WUHU216HW,2013-08-27 02:52:00,
2013-08-26 22:53:00,66.2,62.6,30.03,WSW,248,0.0,0.0,88,0.00,,,0.00,WUHU216HW,2013-08-27 02:53:00,
2013-08-26 22:56:00,66.2,62.6,30.03,WSW,248,0.0,0.0,88,0.00,,,0.00,WUHU216HW,2013-08-27 02:56:00,
2013-08-26 22:57:00,66.1,62.4,30.03,WSW,248,0.0,0.0,88,0.00,,,0.00,WUHU216HW,2013-08-27 02:57:00,
2013-08-26 22:58:00,66.1,62.4,30.03,WSW,248,0.0,0.0,88,0.00,,,0.00,WUHU216HW,2013-08-27 02:58:00,
2013-08-26 22:59:00,66.1,62.4,30.03,WSW,248,0.0,0.0,88,0.00,,,0.00,WUHU216HW,2013-08-27 02:59:00,
2013-08-26 23:02:00,65.9,62.2,30.03,WSW,248,0.0,0.0,88,0.00,,,0.00,WUHU216HW,2013-08-27 03:02:00,
2013-08-26 23:03:00,65.9,62.2,30.03,WSW,248,0.0,0.0,88,0.00,,,0.00,WUHU216HW,2013-08-27 03:03:00,
2013-08-26 23:05:00,65.9,62.2,30.04,WSW,248,0.0,0.0,88,0.00,,,0.00,WUHU216HW,2013-08-27 03:05:00,
2013-08-26 23:06:00,65.9,62.2,30.04,WSW,248,0.0,0.0,88,0.00,,,0.00,WUHU216HW,2013-08-27 03:06:00,
2013-08-26 23:08:00,65.9,62.2,30.04,WSW,248,0.0,0.0,88,0.00,,,0.00,WUHU216HW,2013-08-27 03:08:00,
2013-08-26 23:09:00,65.7,62.0,30.04,WSW,248,0.0,0.0,88,0.00,,,0.00,WUHU216HW,2013-08-27 03:09:00,
2013-08-26 23:11:00,65.7,62.0,30.04,WSW,248,0.0,0.0,88,0.00,,,0.00,WUHU216HW,2013-08-27 03:11:00,
2013-08-26 23:13:00,65.7,62.0,30.04,WSW,248,0.0,0.0,88,0.00,,,0.00,WUHU216HW,2013-08-27 03:13:00,
2013-08-26 23:14:00,65.7,62.0,30.04,WSW,248,0.0,0.0,88,0.00,,,0.00,WUHU216HW,2013-08-27 03:14:00,
2013-08-26 23:17:00,65.9,62.2,30.04,WSW,248,0.0,0.0,88,0.00,,,0.00,WUHU216HW,2013-08-27 03:17:00,
2013-08-26 23:18:00,65.9,62.2,30.04,WSW,248,0.0,0.0,88,0.00,,,0.00,WUHU216HW,2013-08-27 03:18:00,
2013-08-26 23:19:00,65.9,62.2,30.04,WSW,248,0.0,0.0,88,0.00,,,0.00,WUHU216HW,2013-08-27 03:19:00,
2013-08-26 23:20:00,65.9,62.2,30.04,WSW,248,0.0,0.0,88,0.00,,,0.00,WUHU216HW,2013-08-27 03:20:00,
2013-08-26 23:23:00,65.9,62.2,30.04,WSW,248,0.0,0.0,88,0.00,,,0.00,WUHU216HW,2013-08-27 03:23:00,
2013-08-26 23:24:00,65.9,62.2,30.04,WSW,248,0.0,0.0,88,0.00,,,0.00,WUHU216HW,2013-08-27 03:24:00,
2013-08-26 23:25:00,65.7,62.0,30.04,WSW,248,0.0,0.0,88,0.00,,,0.00,WUHU216HW,2013-08-27 03:25:00,
2013-08-26 23:29:00,65.7,62.4,30.04,WSW,248,0.0,0.0,89,0.00,,,0.00,WUHU216HW,2013-08-27 03:29:00,
2013-08-26 23:30:00,65.7,62.4,30.04,WSW,248,0.0,0.0,89,0.00,,,0.00,WUHU216HW,2013-08-27 03:30:00,
2013-08-26 23:32:00,65.5,62.2,30.04,WSW,248,0.0,0.0,89,0.00,,,0.00,WUHU216HW,2013-08-27 03:32:00,
2013-08-26 23:35:00,65.5,62.2,30.04,WSW,248,0.0,0.0,89,0.00,,,0.00,WUHU216HW,2013-08-27 03:35:00,
2013-08-26 23:36:00,65.3,61.8,30.04,WSW,248,0.0,0.0,88,0.00,,,0.00,WUHU216HW,2013-08-27 03:36:00,
2013-08-26 23:37:00,65.3,62.0,30.04,WSW,248,0.0,0.0,89,0.00,,,0.00,WUHU216HW,2013-08-27 03:37:00,
2013-08-26 23:40:00,65.2,61.6,30.04,WSW,248,0.0,0.0,88,0.00,,,0.00,WUHU216HW,2013-08-27 03:40:00,
2013-08-26 23:41:00,65.2,61.6,30.04,WSW,248,0.0,0.0,88,0.00,,,0.00,WUHU216HW,2013-08-27 03:41:00,
2013-08-26 23:43:00,65.2,61.6,30.04,WSW,248,0.0,0.0,88,0.00,,,0.00,WUHU216HW,2013-08-27 03:43:00,
2013-08-26 23:44:00,65.2,61.6,30.04,WSW,248,0.0,0.0,88,0.00,,,0.00,WUHU216HW,2013-08-27 03:44:00,
2013-08-26 23:45:00,65.2,61.6,30.04,WSW,248,0.0,0.0,88,0.00,,,0.00,WUHU216HW,2013-08-27 03:45:00,
2013-08-26 23:46:00,65.2,61.6,30.04,WSW,248,0.0,0.0,88,0.00,,,0.00,WUHU216HW,2013-08-27 03:46:00,
2013-08-26 23:48:00,65.2,61.6,30.04,WSW,248,0.0,0.0,88,0.00,,,0.00,WUHU216HW,2013-08-27 03:48:00,
2013-08-26 23:50:00,65.2,61.6,30.04,WSW,248,0.0,0.0,88,0.00,,,0.00,WUHU216HW,2013-08-27 03:50:00,
2013-08-26 23:52:00,65.0,61.4,30.04,WSW,248,0.0,0.0,88,0.00,,,0.00,WUHU216HW,2013-08-27 03:52:00,
2013-08-26 23:53:00,65.0,61.4,30.04,WSW,248,0.0,0.0,88,0.00,,,0.00,WUHU216HW,2013-08-27 03:53:00,
2013-08-26 23:54:00,65.0,61.4,30.04,WSW,248,0.0,0.0,88,0.00,,,0.00,WUHU216HW,2013-08-27 03:54:00,
2013-08-26 23:55:00,64.8,61.2,30.04,WSW,248,0.0,0.0,88,0.00,,,0.00,WUHU216HW,2013-08-27 03:55:00,
2013-08-26 23:57:00,64.8,61.2,30.04,WSW,248,0.0,0.0,88,0.00,,,0.00,WUHU216HW,2013-08-27 03:57:00,
2013-08-26 23:59:00,64.8,61.2,30.04,WSW,248,0.0,0.0,88,0.00,,,0.00,WUHU216HW,2013-08-27 03:59:00,